<?xml version="1.0" encoding="UTF-8" standalone="no" ?>
<gpx xmlns="http://www.topografix.com/GPX/1/1" xmlns:xsi="http://www.w3.org/2001/XMLSchema-instance" xsi:schemaLocation="http://www.topografix.com/GPX/1/1 http://www.topografix.com/GPX/1/1/gpx.xsd" version="1.1" creator="VisuGPX - https://www.visugpx.com">
  <metadata>
    <name>retour gréziolles</name>
  </metadata>
  <trk>
    <name><![CDATA[retour gréziolles_2]]></name>
    <desc><![CDATA[greziolles
]]></desc>
    <extensions>
      <line xmlns="http://www.topografix.com/GPX/gpx_style/0/2">
        <color>00FF00</color>
        <width>4</width>
      </line>
    </extensions>
    <trkseg>
      <trkpt lat="42.91694" lon="0.20936">
        <ele>1427.21</ele>
        <time>2016-07-05T07:24:24Z</time>
      </trkpt>
      <trkpt lat="42.91692" lon="0.20942">
        <ele>1428.18</ele>
        <time>2016-07-05T07:24:37Z</time>
      </trkpt>
      <trkpt lat="42.91684" lon="0.20946">
        <ele>1427.21</ele>
        <time>2016-07-05T07:24:49Z</time>
      </trkpt>
      <trkpt lat="42.91679" lon="0.2094">
        <ele>1428.18</ele>
        <time>2016-07-05T07:25:01Z</time>
      </trkpt>
      <trkpt lat="42.91679" lon="0.20938">
        <ele>1430.1</ele>
        <time>2016-07-05T07:25:22Z</time>
      </trkpt>
      <trkpt lat="42.91676" lon="0.20937">
        <ele>1427.7</ele>
        <time>2016-07-05T07:25:58Z</time>
      </trkpt>
      <trkpt lat="42.91672" lon="0.20935">
        <ele>1427.7</ele>
        <time>2016-07-05T07:26:17Z</time>
      </trkpt>
      <trkpt lat="42.91667" lon="0.20923">
        <ele>1426.73</ele>
        <time>2016-07-05T07:26:33Z</time>
      </trkpt>
      <trkpt lat="42.91661" lon="0.2091">
        <ele>1427.21</ele>
        <time>2016-07-05T07:26:47Z</time>
      </trkpt>
      <trkpt lat="42.91657" lon="0.20909">
        <ele>1426.25</ele>
        <time>2016-07-05T07:26:55Z</time>
      </trkpt>
      <trkpt lat="42.9166" lon="0.2092">
        <ele>1426.25</ele>
        <time>2016-07-05T07:27:04Z</time>
      </trkpt>
      <trkpt lat="42.9166" lon="0.20931">
        <ele>1426.25</ele>
        <time>2016-07-05T07:27:16Z</time>
      </trkpt>
      <trkpt lat="42.91659" lon="0.20948">
        <ele>1426.73</ele>
        <time>2016-07-05T07:27:35Z</time>
      </trkpt>
      <trkpt lat="42.91663" lon="0.20956">
        <ele>1421.45</ele>
        <time>2016-07-05T07:27:51Z</time>
      </trkpt>
      <trkpt lat="42.91662" lon="0.20954">
        <ele>1420.97</ele>
        <time>2016-07-05T07:27:52Z</time>
      </trkpt>
      <trkpt lat="42.91658" lon="0.20954">
        <ele>1419.04</ele>
        <time>2016-07-05T07:27:56Z</time>
      </trkpt>
      <trkpt lat="42.91653" lon="0.20956">
        <ele>1419.04</ele>
        <time>2016-07-05T07:28:00Z</time>
      </trkpt>
      <trkpt lat="42.9165" lon="0.20965">
        <ele>1416.64</ele>
        <time>2016-07-05T07:28:14Z</time>
      </trkpt>
      <trkpt lat="42.91648" lon="0.20971">
        <ele>1418.56</ele>
        <time>2016-07-05T07:28:29Z</time>
      </trkpt>
      <trkpt lat="42.91647" lon="0.20977">
        <ele>1421.93</ele>
        <time>2016-07-05T07:28:47Z</time>
      </trkpt>
      <trkpt lat="42.91631" lon="0.20994">
        <ele>1422.41</ele>
        <time>2016-07-05T07:29:04Z</time>
      </trkpt>
      <trkpt lat="42.91624" lon="0.20997">
        <ele>1425.77</ele>
        <time>2016-07-05T07:29:21Z</time>
      </trkpt>
      <trkpt lat="42.91625" lon="0.21008">
        <ele>1428.66</ele>
        <time>2016-07-05T07:29:36Z</time>
      </trkpt>
      <trkpt lat="42.9162" lon="0.21012">
        <ele>1427.21</ele>
        <time>2016-07-05T07:29:44Z</time>
      </trkpt>
      <trkpt lat="42.91616" lon="0.21016">
        <ele>1425.29</ele>
        <time>2016-07-05T07:29:51Z</time>
      </trkpt>
      <trkpt lat="42.9161" lon="0.21029">
        <ele>1425.77</ele>
        <time>2016-07-05T07:30:03Z</time>
      </trkpt>
      <trkpt lat="42.91609" lon="0.21044">
        <ele>1427.21</ele>
        <time>2016-07-05T07:30:17Z</time>
      </trkpt>
      <trkpt lat="42.91607" lon="0.21057">
        <ele>1429.14</ele>
        <time>2016-07-05T07:30:33Z</time>
      </trkpt>
      <trkpt lat="42.91604" lon="0.21068">
        <ele>1432.5</ele>
        <time>2016-07-05T07:30:48Z</time>
      </trkpt>
      <trkpt lat="42.91607" lon="0.2108">
        <ele>1432.98</ele>
        <time>2016-07-05T07:31:05Z</time>
      </trkpt>
      <trkpt lat="42.91607" lon="0.21082">
        <ele>1432.98</ele>
        <time>2016-07-05T07:31:07Z</time>
      </trkpt>
      <trkpt lat="42.91602" lon="0.21098">
        <ele>1434.42</ele>
        <time>2016-07-05T07:31:23Z</time>
      </trkpt>
      <trkpt lat="42.91598" lon="0.21107">
        <ele>1435.87</ele>
        <time>2016-07-05T07:31:38Z</time>
      </trkpt>
      <trkpt lat="42.91595" lon="0.21115">
        <ele>1436.83</ele>
        <time>2016-07-05T07:31:54Z</time>
      </trkpt>
      <trkpt lat="42.91592" lon="0.21125">
        <ele>1438.75</ele>
        <time>2016-07-05T07:32:12Z</time>
      </trkpt>
      <trkpt lat="42.91592" lon="0.21133">
        <ele>1440.67</ele>
        <time>2016-07-05T07:32:29Z</time>
      </trkpt>
      <trkpt lat="42.91585" lon="0.21138">
        <ele>1441.63</ele>
        <time>2016-07-05T07:32:46Z</time>
      </trkpt>
      <trkpt lat="42.91581" lon="0.21138">
        <ele>1442.6</ele>
        <time>2016-07-05T07:33:02Z</time>
      </trkpt>
      <trkpt lat="42.91582" lon="0.21147">
        <ele>1444.04</ele>
        <time>2016-07-05T07:33:17Z</time>
      </trkpt>
      <trkpt lat="42.91585" lon="0.21157">
        <ele>1448.36</ele>
        <time>2016-07-05T07:33:37Z</time>
      </trkpt>
      <trkpt lat="42.91577" lon="0.21157">
        <ele>1452.21</ele>
        <time>2016-07-05T07:33:52Z</time>
      </trkpt>
      <trkpt lat="42.91573" lon="0.21163">
        <ele>1455.09</ele>
        <time>2016-07-05T07:34:09Z</time>
      </trkpt>
      <trkpt lat="42.9157" lon="0.21168">
        <ele>1457.98</ele>
        <time>2016-07-05T07:34:23Z</time>
      </trkpt>
      <trkpt lat="42.91571" lon="0.21171">
        <ele>1460.38</ele>
        <time>2016-07-05T07:34:37Z</time>
      </trkpt>
      <trkpt lat="42.91569" lon="0.21173">
        <ele>1462.3</ele>
        <time>2016-07-05T07:34:53Z</time>
      </trkpt>
      <trkpt lat="42.91571" lon="0.2118">
        <ele>1464.23</ele>
        <time>2016-07-05T07:35:08Z</time>
      </trkpt>
      <trkpt lat="42.91572" lon="0.21187">
        <ele>1469.03</ele>
        <time>2016-07-05T07:35:21Z</time>
      </trkpt>
      <trkpt lat="42.91568" lon="0.21192">
        <ele>1470.47</ele>
        <time>2016-07-05T07:35:36Z</time>
      </trkpt>
      <trkpt lat="42.91568" lon="0.21196">
        <ele>1471.92</ele>
        <time>2016-07-05T07:35:51Z</time>
      </trkpt>
      <trkpt lat="42.91572" lon="0.21203">
        <ele>1475.28</ele>
        <time>2016-07-05T07:36:07Z</time>
      </trkpt>
      <trkpt lat="42.91575" lon="0.21211">
        <ele>1477.68</ele>
        <time>2016-07-05T07:36:21Z</time>
      </trkpt>
      <trkpt lat="42.91576" lon="0.21216">
        <ele>1479.61</ele>
        <time>2016-07-05T07:36:38Z</time>
      </trkpt>
      <trkpt lat="42.91572" lon="0.21226">
        <ele>1482.01</ele>
        <time>2016-07-05T07:36:53Z</time>
      </trkpt>
      <trkpt lat="42.91568" lon="0.21233">
        <ele>1482.49</ele>
        <time>2016-07-05T07:37:06Z</time>
      </trkpt>
      <trkpt lat="42.91563" lon="0.21236">
        <ele>1485.37</ele>
        <time>2016-07-05T07:37:21Z</time>
      </trkpt>
      <trkpt lat="42.91562" lon="0.2124">
        <ele>1487.78</ele>
        <time>2016-07-05T07:37:35Z</time>
      </trkpt>
      <trkpt lat="42.91565" lon="0.21248">
        <ele>1490.18</ele>
        <time>2016-07-05T07:37:49Z</time>
      </trkpt>
      <trkpt lat="42.9157" lon="0.21258">
        <ele>1491.14</ele>
        <time>2016-07-05T07:38:02Z</time>
      </trkpt>
      <trkpt lat="42.91569" lon="0.21267">
        <ele>1492.1</ele>
        <time>2016-07-05T07:38:15Z</time>
      </trkpt>
      <trkpt lat="42.9157" lon="0.21274">
        <ele>1493.55</ele>
        <time>2016-07-05T07:38:30Z</time>
      </trkpt>
      <trkpt lat="42.91569" lon="0.2128">
        <ele>1494.99</ele>
        <time>2016-07-05T07:38:44Z</time>
      </trkpt>
      <trkpt lat="42.91574" lon="0.21287">
        <ele>1498.35</ele>
        <time>2016-07-05T07:39:00Z</time>
      </trkpt>
      <trkpt lat="42.91578" lon="0.21292">
        <ele>1500.76</ele>
        <time>2016-07-05T07:39:14Z</time>
      </trkpt>
      <trkpt lat="42.91584" lon="0.21298">
        <ele>1502.68</ele>
        <time>2016-07-05T07:39:29Z</time>
      </trkpt>
      <trkpt lat="42.91588" lon="0.21305">
        <ele>1505.56</ele>
        <time>2016-07-05T07:39:43Z</time>
      </trkpt>
      <trkpt lat="42.91591" lon="0.2131">
        <ele>1508.93</ele>
        <time>2016-07-05T07:39:56Z</time>
      </trkpt>
      <trkpt lat="42.91594" lon="0.21312">
        <ele>1510.85</ele>
        <time>2016-07-05T07:40:10Z</time>
      </trkpt>
      <trkpt lat="42.91593" lon="0.21319">
        <ele>1512.29</ele>
        <time>2016-07-05T07:40:23Z</time>
      </trkpt>
      <trkpt lat="42.91595" lon="0.21324">
        <ele>1515.66</ele>
        <time>2016-07-05T07:40:51Z</time>
      </trkpt>
      <trkpt lat="42.91597" lon="0.21332">
        <ele>1516.62</ele>
        <time>2016-07-05T07:41:05Z</time>
      </trkpt>
      <trkpt lat="42.91594" lon="0.2134">
        <ele>1518.06</ele>
        <time>2016-07-05T07:41:20Z</time>
      </trkpt>
      <trkpt lat="42.91589" lon="0.21344">
        <ele>1520.46</ele>
        <time>2016-07-05T07:41:36Z</time>
      </trkpt>
      <trkpt lat="42.91593" lon="0.21346">
        <ele>1522.87</ele>
        <time>2016-07-05T07:41:50Z</time>
      </trkpt>
      <trkpt lat="42.91592" lon="0.21352">
        <ele>1523.83</ele>
        <time>2016-07-05T07:42:04Z</time>
      </trkpt>
      <trkpt lat="42.91592" lon="0.21354">
        <ele>1524.79</ele>
        <time>2016-07-05T07:42:14Z</time>
      </trkpt>
      <trkpt lat="42.91592" lon="0.21359">
        <ele>1525.75</ele>
        <time>2016-07-05T07:42:26Z</time>
      </trkpt>
      <trkpt lat="42.91594" lon="0.21363">
        <ele>1528.15</ele>
        <time>2016-07-05T07:42:41Z</time>
      </trkpt>
      <trkpt lat="42.91599" lon="0.21369">
        <ele>1530.56</ele>
        <time>2016-07-05T07:42:55Z</time>
      </trkpt>
      <trkpt lat="42.91592" lon="0.21376">
        <ele>1530.08</ele>
        <time>2016-07-05T07:43:08Z</time>
      </trkpt>
      <trkpt lat="42.91589" lon="0.21381">
        <ele>1531.04</ele>
        <time>2016-07-05T07:43:21Z</time>
      </trkpt>
      <trkpt lat="42.9159" lon="0.21389">
        <ele>1533.92</ele>
        <time>2016-07-05T07:43:37Z</time>
      </trkpt>
      <trkpt lat="42.91588" lon="0.21394">
        <ele>1535.36</ele>
        <time>2016-07-05T07:43:50Z</time>
      </trkpt>
      <trkpt lat="42.91586" lon="0.21401">
        <ele>1538.25</ele>
        <time>2016-07-05T07:44:04Z</time>
      </trkpt>
      <trkpt lat="42.91585" lon="0.21412">
        <ele>1541.13</ele>
        <time>2016-07-05T07:44:19Z</time>
      </trkpt>
      <trkpt lat="42.91583" lon="0.21415">
        <ele>1542.09</ele>
        <time>2016-07-05T07:44:26Z</time>
      </trkpt>
      <trkpt lat="42.91581" lon="0.21426">
        <ele>1545.46</ele>
        <time>2016-07-05T07:44:40Z</time>
      </trkpt>
      <trkpt lat="42.91576" lon="0.21436">
        <ele>1548.82</ele>
        <time>2016-07-05T07:44:54Z</time>
      </trkpt>
      <trkpt lat="42.91573" lon="0.21446">
        <ele>1549.78</ele>
        <time>2016-07-05T07:45:08Z</time>
      </trkpt>
      <trkpt lat="42.91571" lon="0.21458">
        <ele>1551.22</ele>
        <time>2016-07-05T07:45:21Z</time>
      </trkpt>
      <trkpt lat="42.91569" lon="0.21471">
        <ele>1551.22</ele>
        <time>2016-07-05T07:45:35Z</time>
      </trkpt>
      <trkpt lat="42.91575" lon="0.21479">
        <ele>1552.67</ele>
        <time>2016-07-05T07:45:48Z</time>
      </trkpt>
      <trkpt lat="42.91572" lon="0.21487">
        <ele>1550.74</ele>
        <time>2016-07-05T07:51:14Z</time>
      </trkpt>
      <trkpt lat="42.91571" lon="0.21488">
        <ele>1553.63</ele>
        <time>2016-07-05T07:51:38Z</time>
      </trkpt>
      <trkpt lat="42.91568" lon="0.2149">
        <ele>1555.07</ele>
        <time>2016-07-05T07:51:54Z</time>
      </trkpt>
      <trkpt lat="42.91566" lon="0.21495">
        <ele>1554.11</ele>
        <time>2016-07-05T07:52:08Z</time>
      </trkpt>
      <trkpt lat="42.91565" lon="0.21497">
        <ele>1553.63</ele>
        <time>2016-07-05T07:52:18Z</time>
      </trkpt>
      <trkpt lat="42.91559" lon="0.215">
        <ele>1554.11</ele>
        <time>2016-07-05T07:52:32Z</time>
      </trkpt>
      <trkpt lat="42.91556" lon="0.21509">
        <ele>1556.51</ele>
        <time>2016-07-05T07:52:45Z</time>
      </trkpt>
      <trkpt lat="42.91552" lon="0.21516">
        <ele>1556.99</ele>
        <time>2016-07-05T07:52:56Z</time>
      </trkpt>
      <trkpt lat="42.91551" lon="0.21524">
        <ele>1557.47</ele>
        <time>2016-07-05T07:53:03Z</time>
      </trkpt>
      <trkpt lat="42.91547" lon="0.21538">
        <ele>1558.43</ele>
        <time>2016-07-05T07:53:17Z</time>
      </trkpt>
      <trkpt lat="42.91546" lon="0.21549">
        <ele>1559.88</ele>
        <time>2016-07-05T07:53:26Z</time>
      </trkpt>
      <trkpt lat="42.91544" lon="0.21552">
        <ele>1560.36</ele>
        <time>2016-07-05T07:53:29Z</time>
      </trkpt>
      <trkpt lat="42.91539" lon="0.21566">
        <ele>1560.84</ele>
        <time>2016-07-05T07:53:41Z</time>
      </trkpt>
      <trkpt lat="42.91539" lon="0.21569">
        <ele>1561.32</ele>
        <time>2016-07-05T07:53:43Z</time>
      </trkpt>
      <trkpt lat="42.91532" lon="0.21586">
        <ele>1561.8</ele>
        <time>2016-07-05T07:53:58Z</time>
      </trkpt>
      <trkpt lat="42.91526" lon="0.21599">
        <ele>1561.8</ele>
        <time>2016-07-05T07:54:11Z</time>
      </trkpt>
      <trkpt lat="42.91517" lon="0.21613">
        <ele>1562.28</ele>
        <time>2016-07-05T07:54:25Z</time>
      </trkpt>
      <trkpt lat="42.91515" lon="0.21614">
        <ele>1561.8</ele>
        <time>2016-07-05T07:54:27Z</time>
      </trkpt>
      <trkpt lat="42.91512" lon="0.21618">
        <ele>1561.8</ele>
        <time>2016-07-05T07:54:34Z</time>
      </trkpt>
      <trkpt lat="42.915" lon="0.21633">
        <ele>1561.32</ele>
        <time>2016-07-05T07:54:48Z</time>
      </trkpt>
      <trkpt lat="42.91492" lon="0.21639">
        <ele>1561.8</ele>
        <time>2016-07-05T07:55:00Z</time>
      </trkpt>
      <trkpt lat="42.91486" lon="0.21645">
        <ele>1561.8</ele>
        <time>2016-07-05T07:55:12Z</time>
      </trkpt>
      <trkpt lat="42.91484" lon="0.21645">
        <ele>1561.32</ele>
        <time>2016-07-05T07:55:15Z</time>
      </trkpt>
      <trkpt lat="42.91477" lon="0.21658">
        <ele>1562.76</ele>
        <time>2016-07-05T07:55:27Z</time>
      </trkpt>
      <trkpt lat="42.91468" lon="0.21667">
        <ele>1563.72</ele>
        <time>2016-07-05T07:55:38Z</time>
      </trkpt>
      <trkpt lat="42.91455" lon="0.21675">
        <ele>1564.68</ele>
        <time>2016-07-05T07:55:52Z</time>
      </trkpt>
      <trkpt lat="42.91445" lon="0.21676">
        <ele>1565.64</ele>
        <time>2016-07-05T07:56:04Z</time>
      </trkpt>
      <trkpt lat="42.91434" lon="0.21677">
        <ele>1565.64</ele>
        <time>2016-07-05T07:56:15Z</time>
      </trkpt>
      <trkpt lat="42.91424" lon="0.21675">
        <ele>1566.61</ele>
        <time>2016-07-05T07:56:28Z</time>
      </trkpt>
      <trkpt lat="42.91413" lon="0.21671">
        <ele>1566.12</ele>
        <time>2016-07-05T07:56:39Z</time>
      </trkpt>
      <trkpt lat="42.91401" lon="0.21671">
        <ele>1565.64</ele>
        <time>2016-07-05T07:56:50Z</time>
      </trkpt>
      <trkpt lat="42.91395" lon="0.21666">
        <ele>1565.64</ele>
        <time>2016-07-05T07:57:01Z</time>
      </trkpt>
      <trkpt lat="42.91385" lon="0.21661">
        <ele>1565.16</ele>
        <time>2016-07-05T07:57:12Z</time>
      </trkpt>
      <trkpt lat="42.91374" lon="0.21656">
        <ele>1566.61</ele>
        <time>2016-07-05T07:57:24Z</time>
      </trkpt>
      <trkpt lat="42.91363" lon="0.21652">
        <ele>1567.57</ele>
        <time>2016-07-05T07:57:36Z</time>
      </trkpt>
      <trkpt lat="42.91353" lon="0.21645">
        <ele>1566.12</ele>
        <time>2016-07-05T07:57:49Z</time>
      </trkpt>
      <trkpt lat="42.91344" lon="0.21638">
        <ele>1565.64</ele>
        <time>2016-07-05T07:57:59Z</time>
      </trkpt>
      <trkpt lat="42.91338" lon="0.21637">
        <ele>1565.16</ele>
        <time>2016-07-05T07:58:06Z</time>
      </trkpt>
      <trkpt lat="42.91333" lon="0.21635">
        <ele>1564.68</ele>
        <time>2016-07-05T07:58:10Z</time>
      </trkpt>
      <trkpt lat="42.91319" lon="0.21626">
        <ele>1564.68</ele>
        <time>2016-07-05T07:58:25Z</time>
      </trkpt>
      <trkpt lat="42.91306" lon="0.2162">
        <ele>1565.64</ele>
        <time>2016-07-05T07:58:37Z</time>
      </trkpt>
      <trkpt lat="42.91293" lon="0.21617">
        <ele>1564.68</ele>
        <time>2016-07-05T07:58:50Z</time>
      </trkpt>
      <trkpt lat="42.91291" lon="0.21615">
        <ele>1564.2</ele>
        <time>2016-07-05T07:58:54Z</time>
      </trkpt>
      <trkpt lat="42.91278" lon="0.21603">
        <ele>1565.16</ele>
        <time>2016-07-05T07:59:06Z</time>
      </trkpt>
      <trkpt lat="42.91264" lon="0.21596">
        <ele>1570.45</ele>
        <time>2016-07-05T07:59:19Z</time>
      </trkpt>
      <trkpt lat="42.91253" lon="0.21591">
        <ele>1570.45</ele>
        <time>2016-07-05T07:59:31Z</time>
      </trkpt>
      <trkpt lat="42.91251" lon="0.2159">
        <ele>1569.97</ele>
        <time>2016-07-05T07:59:34Z</time>
      </trkpt>
      <trkpt lat="42.91242" lon="0.21587">
        <ele>1566.61</ele>
        <time>2016-07-05T07:59:46Z</time>
      </trkpt>
      <trkpt lat="42.91236" lon="0.21586">
        <ele>1565.64</ele>
        <time>2016-07-05T07:59:52Z</time>
      </trkpt>
      <trkpt lat="42.91223" lon="0.21578">
        <ele>1563.24</ele>
        <time>2016-07-05T08:00:05Z</time>
      </trkpt>
      <trkpt lat="42.91212" lon="0.21571">
        <ele>1562.76</ele>
        <time>2016-07-05T08:00:17Z</time>
      </trkpt>
      <trkpt lat="42.9121" lon="0.2157">
        <ele>1562.76</ele>
        <time>2016-07-05T08:00:19Z</time>
      </trkpt>
      <trkpt lat="42.91201" lon="0.21559">
        <ele>1561.32</ele>
        <time>2016-07-05T08:00:31Z</time>
      </trkpt>
      <trkpt lat="42.91193" lon="0.21548">
        <ele>1561.32</ele>
        <time>2016-07-05T08:00:45Z</time>
      </trkpt>
      <trkpt lat="42.91184" lon="0.21536">
        <ele>1562.76</ele>
        <time>2016-07-05T08:00:58Z</time>
      </trkpt>
      <trkpt lat="42.91177" lon="0.21531">
        <ele>1562.76</ele>
        <time>2016-07-05T08:01:14Z</time>
      </trkpt>
      <trkpt lat="42.91174" lon="0.21521">
        <ele>1563.24</ele>
        <time>2016-07-05T08:01:25Z</time>
      </trkpt>
      <trkpt lat="42.91172" lon="0.21518">
        <ele>1563.72</ele>
        <time>2016-07-05T08:01:28Z</time>
      </trkpt>
      <trkpt lat="42.91165" lon="0.21512">
        <ele>1563.72</ele>
        <time>2016-07-05T08:01:37Z</time>
      </trkpt>
      <trkpt lat="42.91164" lon="0.21511">
        <ele>1563.72</ele>
        <time>2016-07-05T08:01:40Z</time>
      </trkpt>
      <trkpt lat="42.91161" lon="0.21506">
        <ele>1562.76</ele>
        <time>2016-07-05T08:01:45Z</time>
      </trkpt>
      <trkpt lat="42.91158" lon="0.21503">
        <ele>1562.76</ele>
        <time>2016-07-05T08:01:50Z</time>
      </trkpt>
      <trkpt lat="42.91147" lon="0.21493">
        <ele>1561.8</ele>
        <time>2016-07-05T08:02:03Z</time>
      </trkpt>
      <trkpt lat="42.91139" lon="0.21485">
        <ele>1561.8</ele>
        <time>2016-07-05T08:02:16Z</time>
      </trkpt>
      <trkpt lat="42.91135" lon="0.21476">
        <ele>1563.72</ele>
        <time>2016-07-05T08:02:28Z</time>
      </trkpt>
      <trkpt lat="42.9113" lon="0.21471">
        <ele>1566.61</ele>
        <time>2016-07-05T08:02:40Z</time>
      </trkpt>
      <trkpt lat="42.91126" lon="0.21471">
        <ele>1568.53</ele>
        <time>2016-07-05T08:02:50Z</time>
      </trkpt>
      <trkpt lat="42.91124" lon="0.21471">
        <ele>1569.97</ele>
        <time>2016-07-05T08:02:54Z</time>
      </trkpt>
      <trkpt lat="42.91123" lon="0.21472">
        <ele>1570.45</ele>
        <time>2016-07-05T08:02:57Z</time>
      </trkpt>
      <trkpt lat="42.91115" lon="0.21481">
        <ele>1569.49</ele>
        <time>2016-07-05T08:03:09Z</time>
      </trkpt>
      <trkpt lat="42.91113" lon="0.21484">
        <ele>1569.49</ele>
        <time>2016-07-05T08:03:12Z</time>
      </trkpt>
      <trkpt lat="42.91109" lon="0.21487">
        <ele>1569.49</ele>
        <time>2016-07-05T08:03:16Z</time>
      </trkpt>
      <trkpt lat="42.91103" lon="0.2149">
        <ele>1569.01</ele>
        <time>2016-07-05T08:03:22Z</time>
      </trkpt>
      <trkpt lat="42.91101" lon="0.21493">
        <ele>1569.01</ele>
        <time>2016-07-05T08:03:26Z</time>
      </trkpt>
      <trkpt lat="42.91094" lon="0.21499">
        <ele>1568.05</ele>
        <time>2016-07-05T08:03:41Z</time>
      </trkpt>
      <trkpt lat="42.91092" lon="0.21503">
        <ele>1566.12</ele>
        <time>2016-07-05T08:03:55Z</time>
      </trkpt>
      <trkpt lat="42.91089" lon="0.21511">
        <ele>1565.64</ele>
        <time>2016-07-05T08:04:03Z</time>
      </trkpt>
      <trkpt lat="42.91082" lon="0.21525">
        <ele>1564.2</ele>
        <time>2016-07-05T08:04:16Z</time>
      </trkpt>
      <trkpt lat="42.91076" lon="0.21529">
        <ele>1564.2</ele>
        <time>2016-07-05T08:04:22Z</time>
      </trkpt>
      <trkpt lat="42.91071" lon="0.21533">
        <ele>1563.72</ele>
        <time>2016-07-05T08:04:28Z</time>
      </trkpt>
      <trkpt lat="42.91059" lon="0.21529">
        <ele>1563.24</ele>
        <time>2016-07-05T08:04:41Z</time>
      </trkpt>
      <trkpt lat="42.91058" lon="0.21528">
        <ele>1563.24</ele>
        <time>2016-07-05T08:04:42Z</time>
      </trkpt>
      <trkpt lat="42.91053" lon="0.21522">
        <ele>1559.88</ele>
        <time>2016-07-05T08:04:55Z</time>
      </trkpt>
      <trkpt lat="42.91047" lon="0.21516">
        <ele>1560.36</ele>
        <time>2016-07-05T08:05:07Z</time>
      </trkpt>
      <trkpt lat="42.9104" lon="0.21512">
        <ele>1561.32</ele>
        <time>2016-07-05T08:05:20Z</time>
      </trkpt>
      <trkpt lat="42.91035" lon="0.2151">
        <ele>1563.24</ele>
        <time>2016-07-05T08:05:32Z</time>
      </trkpt>
      <trkpt lat="42.9103" lon="0.21508">
        <ele>1566.12</ele>
        <time>2016-07-05T08:05:43Z</time>
      </trkpt>
      <trkpt lat="42.91029" lon="0.21508">
        <ele>1564.68</ele>
        <time>2016-07-05T08:05:47Z</time>
      </trkpt>
      <trkpt lat="42.91023" lon="0.21507">
        <ele>1565.64</ele>
        <time>2016-07-05T08:06:00Z</time>
      </trkpt>
      <trkpt lat="42.91016" lon="0.21504">
        <ele>1568.05</ele>
        <time>2016-07-05T08:06:12Z</time>
      </trkpt>
      <trkpt lat="42.91011" lon="0.21503">
        <ele>1568.53</ele>
        <time>2016-07-05T08:06:21Z</time>
      </trkpt>
      <trkpt lat="42.91009" lon="0.21502">
        <ele>1569.49</ele>
        <time>2016-07-05T08:06:24Z</time>
      </trkpt>
      <trkpt lat="42.91001" lon="0.21492">
        <ele>1571.41</ele>
        <time>2016-07-05T08:06:36Z</time>
      </trkpt>
      <trkpt lat="42.90992" lon="0.21486">
        <ele>1569.97</ele>
        <time>2016-07-05T08:06:51Z</time>
      </trkpt>
      <trkpt lat="42.9099" lon="0.21485">
        <ele>1569.97</ele>
        <time>2016-07-05T08:06:53Z</time>
      </trkpt>
      <trkpt lat="42.90981" lon="0.21477">
        <ele>1570.93</ele>
        <time>2016-07-05T08:07:06Z</time>
      </trkpt>
      <trkpt lat="42.90973" lon="0.21472">
        <ele>1572.85</ele>
        <time>2016-07-05T08:07:18Z</time>
      </trkpt>
      <trkpt lat="42.90966" lon="0.21466">
        <ele>1574.78</ele>
        <time>2016-07-05T08:07:28Z</time>
      </trkpt>
      <trkpt lat="42.9096" lon="0.21461">
        <ele>1576.22</ele>
        <time>2016-07-05T08:07:39Z</time>
      </trkpt>
      <trkpt lat="42.90957" lon="0.21458">
        <ele>1576.7</ele>
        <time>2016-07-05T08:07:43Z</time>
      </trkpt>
      <trkpt lat="42.90951" lon="0.2145">
        <ele>1577.66</ele>
        <time>2016-07-05T08:07:55Z</time>
      </trkpt>
      <trkpt lat="42.90946" lon="0.21448">
        <ele>1579.1</ele>
        <time>2016-07-05T08:08:05Z</time>
      </trkpt>
      <trkpt lat="42.90938" lon="0.21443">
        <ele>1580.54</ele>
        <time>2016-07-05T08:08:16Z</time>
      </trkpt>
      <trkpt lat="42.90928" lon="0.2144">
        <ele>1581.51</ele>
        <time>2016-07-05T08:08:28Z</time>
      </trkpt>
      <trkpt lat="42.90927" lon="0.21439">
        <ele>1581.51</ele>
        <time>2016-07-05T08:08:29Z</time>
      </trkpt>
      <trkpt lat="42.90918" lon="0.21435">
        <ele>1582.47</ele>
        <time>2016-07-05T08:08:41Z</time>
      </trkpt>
      <trkpt lat="42.90911" lon="0.21427">
        <ele>1582.47</ele>
        <time>2016-07-05T08:08:53Z</time>
      </trkpt>
      <trkpt lat="42.90904" lon="0.21423">
        <ele>1581.99</ele>
        <time>2016-07-05T08:09:04Z</time>
      </trkpt>
      <trkpt lat="42.90903" lon="0.21421">
        <ele>1582.47</ele>
        <time>2016-07-05T08:09:07Z</time>
      </trkpt>
      <trkpt lat="42.90901" lon="0.21417">
        <ele>1582.95</ele>
        <time>2016-07-05T08:09:10Z</time>
      </trkpt>
      <trkpt lat="42.90892" lon="0.21409">
        <ele>1583.91</ele>
        <time>2016-07-05T08:09:24Z</time>
      </trkpt>
      <trkpt lat="42.90891" lon="0.21404">
        <ele>1584.39</ele>
        <time>2016-07-05T08:09:28Z</time>
      </trkpt>
      <trkpt lat="42.9089" lon="0.214">
        <ele>1584.87</ele>
        <time>2016-07-05T08:09:32Z</time>
      </trkpt>
      <trkpt lat="42.90882" lon="0.21393">
        <ele>1585.83</ele>
        <time>2016-07-05T08:09:44Z</time>
      </trkpt>
      <trkpt lat="42.90881" lon="0.21393">
        <ele>1585.35</ele>
        <time>2016-07-05T08:09:46Z</time>
      </trkpt>
      <trkpt lat="42.90879" lon="0.2139">
        <ele>1583.91</ele>
        <time>2016-07-05T08:09:51Z</time>
      </trkpt>
      <trkpt lat="42.90869" lon="0.21383">
        <ele>1584.87</ele>
        <time>2016-07-05T08:10:04Z</time>
      </trkpt>
      <trkpt lat="42.90859" lon="0.21374">
        <ele>1587.27</ele>
        <time>2016-07-05T08:10:17Z</time>
      </trkpt>
      <trkpt lat="42.90856" lon="0.21365">
        <ele>1587.75</ele>
        <time>2016-07-05T08:10:27Z</time>
      </trkpt>
      <trkpt lat="42.90847" lon="0.21356">
        <ele>1588.24</ele>
        <time>2016-07-05T08:10:40Z</time>
      </trkpt>
      <trkpt lat="42.90839" lon="0.21345">
        <ele>1589.68</ele>
        <time>2016-07-05T08:10:53Z</time>
      </trkpt>
      <trkpt lat="42.90831" lon="0.21338">
        <ele>1590.16</ele>
        <time>2016-07-05T08:11:05Z</time>
      </trkpt>
      <trkpt lat="42.90822" lon="0.21328">
        <ele>1591.6</ele>
        <time>2016-07-05T08:11:18Z</time>
      </trkpt>
      <trkpt lat="42.90821" lon="0.21326">
        <ele>1591.6</ele>
        <time>2016-07-05T08:11:20Z</time>
      </trkpt>
      <trkpt lat="42.90813" lon="0.21314">
        <ele>1593.04</ele>
        <time>2016-07-05T08:11:33Z</time>
      </trkpt>
      <trkpt lat="42.90805" lon="0.21307">
        <ele>1593.52</ele>
        <time>2016-07-05T08:11:45Z</time>
      </trkpt>
      <trkpt lat="42.90799" lon="0.21301">
        <ele>1593.52</ele>
        <time>2016-07-05T08:11:57Z</time>
      </trkpt>
      <trkpt lat="42.90798" lon="0.21301">
        <ele>1592.56</ele>
        <time>2016-07-05T08:12:00Z</time>
      </trkpt>
      <trkpt lat="42.90788" lon="0.21296">
        <ele>1590.64</ele>
        <time>2016-07-05T08:12:13Z</time>
      </trkpt>
      <trkpt lat="42.90781" lon="0.21289">
        <ele>1589.68</ele>
        <time>2016-07-05T08:12:23Z</time>
      </trkpt>
      <trkpt lat="42.90774" lon="0.21283">
        <ele>1591.6</ele>
        <time>2016-07-05T08:12:35Z</time>
      </trkpt>
      <trkpt lat="42.90772" lon="0.21281">
        <ele>1592.08</ele>
        <time>2016-07-05T08:12:40Z</time>
      </trkpt>
      <trkpt lat="42.90767" lon="0.21279">
        <ele>1593.04</ele>
        <time>2016-07-05T08:12:46Z</time>
      </trkpt>
      <trkpt lat="42.90766" lon="0.21277">
        <ele>1593.52</ele>
        <time>2016-07-05T08:12:49Z</time>
      </trkpt>
      <trkpt lat="42.90764" lon="0.21272">
        <ele>1594</ele>
        <time>2016-07-05T08:12:53Z</time>
      </trkpt>
      <trkpt lat="42.90759" lon="0.2126">
        <ele>1595.93</ele>
        <time>2016-07-05T08:13:07Z</time>
      </trkpt>
      <trkpt lat="42.90756" lon="0.21247">
        <ele>1596.41</ele>
        <time>2016-07-05T08:13:21Z</time>
      </trkpt>
      <trkpt lat="42.90753" lon="0.21232">
        <ele>1596.41</ele>
        <time>2016-07-05T08:13:34Z</time>
      </trkpt>
      <trkpt lat="42.90749" lon="0.2122">
        <ele>1596.89</ele>
        <time>2016-07-05T08:13:49Z</time>
      </trkpt>
      <trkpt lat="42.90741" lon="0.21211">
        <ele>1598.33</ele>
        <time>2016-07-05T08:14:01Z</time>
      </trkpt>
      <trkpt lat="42.9074" lon="0.21209">
        <ele>1598.81</ele>
        <time>2016-07-05T08:14:03Z</time>
      </trkpt>
      <trkpt lat="42.90735" lon="0.21196">
        <ele>1599.29</ele>
        <time>2016-07-05T08:14:16Z</time>
      </trkpt>
      <trkpt lat="42.90731" lon="0.2119">
        <ele>1600.25</ele>
        <time>2016-07-05T08:14:24Z</time>
      </trkpt>
      <trkpt lat="42.90727" lon="0.21183">
        <ele>1601.21</ele>
        <time>2016-07-05T08:14:34Z</time>
      </trkpt>
      <trkpt lat="42.90723" lon="0.21171">
        <ele>1601.69</ele>
        <time>2016-07-05T08:14:48Z</time>
      </trkpt>
      <trkpt lat="42.90723" lon="0.21165">
        <ele>1601.21</ele>
        <time>2016-07-05T08:15:01Z</time>
      </trkpt>
      <trkpt lat="42.90716" lon="0.21158">
        <ele>1601.21</ele>
        <time>2016-07-05T08:15:12Z</time>
      </trkpt>
      <trkpt lat="42.90713" lon="0.21149">
        <ele>1601.69</ele>
        <time>2016-07-05T08:15:25Z</time>
      </trkpt>
      <trkpt lat="42.90705" lon="0.21145">
        <ele>1603.62</ele>
        <time>2016-07-05T08:15:37Z</time>
      </trkpt>
      <trkpt lat="42.90701" lon="0.21134">
        <ele>1605.06</ele>
        <time>2016-07-05T08:15:50Z</time>
      </trkpt>
      <trkpt lat="42.90695" lon="0.2113">
        <ele>1606.02</ele>
        <time>2016-07-05T08:16:02Z</time>
      </trkpt>
      <trkpt lat="42.90692" lon="0.21128">
        <ele>1607.94</ele>
        <time>2016-07-05T08:16:14Z</time>
      </trkpt>
      <trkpt lat="42.90688" lon="0.21123">
        <ele>1608.42</ele>
        <time>2016-07-05T08:16:26Z</time>
      </trkpt>
      <trkpt lat="42.90683" lon="0.21125">
        <ele>1608.9</ele>
        <time>2016-07-05T08:16:35Z</time>
      </trkpt>
      <trkpt lat="42.90675" lon="0.21128">
        <ele>1610.83</ele>
        <time>2016-07-05T08:16:47Z</time>
      </trkpt>
      <trkpt lat="42.90673" lon="0.21127">
        <ele>1611.79</ele>
        <time>2016-07-05T08:16:51Z</time>
      </trkpt>
      <trkpt lat="42.90667" lon="0.21127">
        <ele>1612.27</ele>
        <time>2016-07-05T08:16:59Z</time>
      </trkpt>
      <trkpt lat="42.90656" lon="0.21126">
        <ele>1613.23</ele>
        <time>2016-07-05T08:17:09Z</time>
      </trkpt>
      <trkpt lat="42.90652" lon="0.21125">
        <ele>1613.23</ele>
        <time>2016-07-05T08:17:15Z</time>
      </trkpt>
      <trkpt lat="42.90649" lon="0.21124">
        <ele>1613.23</ele>
        <time>2016-07-05T08:17:19Z</time>
      </trkpt>
      <trkpt lat="42.90639" lon="0.21126">
        <ele>1612.27</ele>
        <time>2016-07-05T08:17:30Z</time>
      </trkpt>
      <trkpt lat="42.90629" lon="0.21122">
        <ele>1612.75</ele>
        <time>2016-07-05T08:17:41Z</time>
      </trkpt>
      <trkpt lat="42.90623" lon="0.21121">
        <ele>1613.71</ele>
        <time>2016-07-05T08:17:50Z</time>
      </trkpt>
      <trkpt lat="42.90621" lon="0.21118">
        <ele>1614.19</ele>
        <time>2016-07-05T08:17:53Z</time>
      </trkpt>
      <trkpt lat="42.90617" lon="0.21117">
        <ele>1614.19</ele>
        <time>2016-07-05T08:18:00Z</time>
      </trkpt>
      <trkpt lat="42.90615" lon="0.21116">
        <ele>1614.67</ele>
        <time>2016-07-05T08:18:03Z</time>
      </trkpt>
      <trkpt lat="42.90607" lon="0.21109">
        <ele>1615.63</ele>
        <time>2016-07-05T08:18:15Z</time>
      </trkpt>
      <trkpt lat="42.90602" lon="0.21104">
        <ele>1617.56</ele>
        <time>2016-07-05T08:18:28Z</time>
      </trkpt>
      <trkpt lat="42.90601" lon="0.21104">
        <ele>1618.04</ele>
        <time>2016-07-05T08:18:29Z</time>
      </trkpt>
      <trkpt lat="42.90595" lon="0.211">
        <ele>1619.48</ele>
        <time>2016-07-05T08:18:39Z</time>
      </trkpt>
      <trkpt lat="42.90591" lon="0.21099">
        <ele>1619.96</ele>
        <time>2016-07-05T08:18:48Z</time>
      </trkpt>
      <trkpt lat="42.90584" lon="0.21102">
        <ele>1621.4</ele>
        <time>2016-07-05T08:18:59Z</time>
      </trkpt>
      <trkpt lat="42.90577" lon="0.21096">
        <ele>1621.88</ele>
        <time>2016-07-05T08:19:11Z</time>
      </trkpt>
      <trkpt lat="42.90572" lon="0.21093">
        <ele>1622.84</ele>
        <time>2016-07-05T08:19:23Z</time>
      </trkpt>
      <trkpt lat="42.90564" lon="0.21093">
        <ele>1624.77</ele>
        <time>2016-07-05T08:19:34Z</time>
      </trkpt>
      <trkpt lat="42.90559" lon="0.21092">
        <ele>1625.73</ele>
        <time>2016-07-05T08:19:44Z</time>
      </trkpt>
      <trkpt lat="42.90557" lon="0.21091">
        <ele>1626.21</ele>
        <time>2016-07-05T08:19:46Z</time>
      </trkpt>
      <trkpt lat="42.90552" lon="0.21088">
        <ele>1626.69</ele>
        <time>2016-07-05T08:19:52Z</time>
      </trkpt>
      <trkpt lat="42.9055" lon="0.21084">
        <ele>1628.13</ele>
        <time>2016-07-05T08:19:57Z</time>
      </trkpt>
      <trkpt lat="42.90547" lon="0.21083">
        <ele>1627.65</ele>
        <time>2016-07-05T08:20:02Z</time>
      </trkpt>
      <trkpt lat="42.90543" lon="0.21087">
        <ele>1628.13</ele>
        <time>2016-07-05T08:20:14Z</time>
      </trkpt>
      <trkpt lat="42.90532" lon="0.2109">
        <ele>1630.05</ele>
        <time>2016-07-05T08:20:28Z</time>
      </trkpt>
      <trkpt lat="42.90523" lon="0.21089">
        <ele>1630.05</ele>
        <time>2016-07-05T08:20:40Z</time>
      </trkpt>
      <trkpt lat="42.90526" lon="0.21079">
        <ele>1640.63</ele>
        <time>2016-07-05T08:23:34Z</time>
      </trkpt>
      <trkpt lat="42.90527" lon="0.21067">
        <ele>1643.03</ele>
        <time>2016-07-05T08:23:47Z</time>
      </trkpt>
      <trkpt lat="42.90528" lon="0.21055">
        <ele>1645.91</ele>
        <time>2016-07-05T08:24:00Z</time>
      </trkpt>
      <trkpt lat="42.90532" lon="0.21045">
        <ele>1649.76</ele>
        <time>2016-07-05T08:24:13Z</time>
      </trkpt>
      <trkpt lat="42.90534" lon="0.21038">
        <ele>1651.68</ele>
        <time>2016-07-05T08:24:25Z</time>
      </trkpt>
      <trkpt lat="42.90538" lon="0.21026">
        <ele>1656.01</ele>
        <time>2016-07-05T08:24:39Z</time>
      </trkpt>
      <trkpt lat="42.90543" lon="0.21013">
        <ele>1658.41</ele>
        <time>2016-07-05T08:24:53Z</time>
      </trkpt>
      <trkpt lat="42.90543" lon="0.21007">
        <ele>1662.26</ele>
        <time>2016-07-05T08:25:06Z</time>
      </trkpt>
      <trkpt lat="42.90543" lon="0.20997">
        <ele>1663.7</ele>
        <time>2016-07-05T08:25:20Z</time>
      </trkpt>
      <trkpt lat="42.90544" lon="0.20986">
        <ele>1666.1</ele>
        <time>2016-07-05T08:25:33Z</time>
      </trkpt>
      <trkpt lat="42.90548" lon="0.20979">
        <ele>1668.51</ele>
        <time>2016-07-05T08:25:46Z</time>
      </trkpt>
      <trkpt lat="42.90549" lon="0.20971">
        <ele>1670.91</ele>
        <time>2016-07-05T08:25:59Z</time>
      </trkpt>
      <trkpt lat="42.90548" lon="0.20964">
        <ele>1672.35</ele>
        <time>2016-07-05T08:26:12Z</time>
      </trkpt>
      <trkpt lat="42.9055" lon="0.20957">
        <ele>1674.27</ele>
        <time>2016-07-05T08:26:27Z</time>
      </trkpt>
      <trkpt lat="42.90554" lon="0.20943">
        <ele>1677.64</ele>
        <time>2016-07-05T08:26:42Z</time>
      </trkpt>
      <trkpt lat="42.90561" lon="0.20934">
        <ele>1678.6</ele>
        <time>2016-07-05T08:26:55Z</time>
      </trkpt>
      <trkpt lat="42.90564" lon="0.20926">
        <ele>1680.52</ele>
        <time>2016-07-05T08:27:09Z</time>
      </trkpt>
      <trkpt lat="42.90567" lon="0.20924">
        <ele>1681.96</ele>
        <time>2016-07-05T08:27:22Z</time>
      </trkpt>
      <trkpt lat="42.90567" lon="0.20921">
        <ele>1682.93</ele>
        <time>2016-07-05T08:27:35Z</time>
      </trkpt>
      <trkpt lat="42.90566" lon="0.20915">
        <ele>1684.85</ele>
        <time>2016-07-05T08:27:54Z</time>
      </trkpt>
      <trkpt lat="42.90563" lon="0.20913">
        <ele>1685.33</ele>
        <time>2016-07-05T08:28:06Z</time>
      </trkpt>
      <trkpt lat="42.90562" lon="0.20914">
        <ele>1684.85</ele>
        <time>2016-07-05T08:28:09Z</time>
      </trkpt>
      <trkpt lat="42.90556" lon="0.20911">
        <ele>1683.89</ele>
        <time>2016-07-05T08:28:20Z</time>
      </trkpt>
      <trkpt lat="42.90548" lon="0.20911">
        <ele>1681.96</ele>
        <time>2016-07-05T08:28:32Z</time>
      </trkpt>
      <trkpt lat="42.90542" lon="0.20912">
        <ele>1681.96</ele>
        <time>2016-07-05T08:28:43Z</time>
      </trkpt>
      <trkpt lat="42.9054" lon="0.20913">
        <ele>1682.44</ele>
        <time>2016-07-05T08:28:49Z</time>
      </trkpt>
      <trkpt lat="42.90534" lon="0.20914">
        <ele>1682.93</ele>
        <time>2016-07-05T08:29:02Z</time>
      </trkpt>
      <trkpt lat="42.9053" lon="0.20912">
        <ele>1682.93</ele>
        <time>2016-07-05T08:29:13Z</time>
      </trkpt>
      <trkpt lat="42.90523" lon="0.20914">
        <ele>1682.93</ele>
        <time>2016-07-05T08:29:28Z</time>
      </trkpt>
      <trkpt lat="42.9052" lon="0.20916">
        <ele>1683.41</ele>
        <time>2016-07-05T08:29:40Z</time>
      </trkpt>
      <trkpt lat="42.90519" lon="0.20915">
        <ele>1685.33</ele>
        <time>2016-07-05T08:29:52Z</time>
      </trkpt>
      <trkpt lat="42.90514" lon="0.20916">
        <ele>1686.29</ele>
        <time>2016-07-05T08:30:03Z</time>
      </trkpt>
      <trkpt lat="42.90511" lon="0.2092">
        <ele>1688.69</ele>
        <time>2016-07-05T08:30:18Z</time>
      </trkpt>
      <trkpt lat="42.90508" lon="0.20924">
        <ele>1700.23</ele>
        <time>2016-07-05T08:30:55Z</time>
      </trkpt>
      <trkpt lat="42.90504" lon="0.2093">
        <ele>1703.11</ele>
        <time>2016-07-05T08:31:08Z</time>
      </trkpt>
      <trkpt lat="42.90506" lon="0.20938">
        <ele>1705.04</ele>
        <time>2016-07-05T08:31:20Z</time>
      </trkpt>
      <trkpt lat="42.90505" lon="0.20942">
        <ele>1708.88</ele>
        <time>2016-07-05T08:31:32Z</time>
      </trkpt>
      <trkpt lat="42.90504" lon="0.20944">
        <ele>1711.76</ele>
        <time>2016-07-05T08:31:41Z</time>
      </trkpt>
      <trkpt lat="42.905" lon="0.20947">
        <ele>1714.17</ele>
        <time>2016-07-05T08:31:52Z</time>
      </trkpt>
      <trkpt lat="42.90496" lon="0.2095">
        <ele>1717.05</ele>
        <time>2016-07-05T08:33:00Z</time>
      </trkpt>
      <trkpt lat="42.9049" lon="0.20953">
        <ele>1718.97</ele>
        <time>2016-07-05T08:33:12Z</time>
      </trkpt>
      <trkpt lat="42.90487" lon="0.20959">
        <ele>1720.9</ele>
        <time>2016-07-05T08:33:24Z</time>
      </trkpt>
      <trkpt lat="42.90482" lon="0.2096">
        <ele>1721.86</ele>
        <time>2016-07-05T08:33:35Z</time>
      </trkpt>
      <trkpt lat="42.90477" lon="0.20956">
        <ele>1723.78</ele>
        <time>2016-07-05T08:33:47Z</time>
      </trkpt>
      <trkpt lat="42.90474" lon="0.20954">
        <ele>1727.63</ele>
        <time>2016-07-05T08:34:04Z</time>
      </trkpt>
      <trkpt lat="42.90471" lon="0.2095">
        <ele>1729.55</ele>
        <time>2016-07-05T08:34:13Z</time>
      </trkpt>
      <trkpt lat="42.90472" lon="0.20946">
        <ele>1731.95</ele>
        <time>2016-07-05T08:34:27Z</time>
      </trkpt>
      <trkpt lat="42.9047" lon="0.20945">
        <ele>1731.47</ele>
        <time>2016-07-05T08:34:37Z</time>
      </trkpt>
      <trkpt lat="42.90464" lon="0.20946">
        <ele>1732.43</ele>
        <time>2016-07-05T08:34:48Z</time>
      </trkpt>
      <trkpt lat="42.90461" lon="0.2095">
        <ele>1731.95</ele>
        <time>2016-07-05T08:35:01Z</time>
      </trkpt>
      <trkpt lat="42.90456" lon="0.20956">
        <ele>1732.91</ele>
        <time>2016-07-05T08:35:13Z</time>
      </trkpt>
      <trkpt lat="42.90457" lon="0.20963">
        <ele>1733.39</ele>
        <time>2016-07-05T08:35:27Z</time>
      </trkpt>
      <trkpt lat="42.90456" lon="0.20969">
        <ele>1734.84</ele>
        <time>2016-07-05T08:35:41Z</time>
      </trkpt>
      <trkpt lat="42.90452" lon="0.20975">
        <ele>1736.76</ele>
        <time>2016-07-05T08:35:58Z</time>
      </trkpt>
      <trkpt lat="42.90447" lon="0.20968">
        <ele>1737.24</ele>
        <time>2016-07-05T08:36:09Z</time>
      </trkpt>
      <trkpt lat="42.90446" lon="0.20955">
        <ele>1739.64</ele>
        <time>2016-07-05T08:36:22Z</time>
      </trkpt>
      <trkpt lat="42.90445" lon="0.20955">
        <ele>1739.64</ele>
        <time>2016-07-05T08:36:23Z</time>
      </trkpt>
      <trkpt lat="42.90437" lon="0.20949">
        <ele>1740.6</ele>
        <time>2016-07-05T08:36:36Z</time>
      </trkpt>
      <trkpt lat="42.9043" lon="0.20946">
        <ele>1743.01</ele>
        <time>2016-07-05T08:36:50Z</time>
      </trkpt>
      <trkpt lat="42.90429" lon="0.20946">
        <ele>1743.01</ele>
        <time>2016-07-05T08:36:52Z</time>
      </trkpt>
      <trkpt lat="42.90422" lon="0.20944">
        <ele>1744.45</ele>
        <time>2016-07-05T08:37:03Z</time>
      </trkpt>
      <trkpt lat="42.9042" lon="0.20943">
        <ele>1746.85</ele>
        <time>2016-07-05T08:37:14Z</time>
      </trkpt>
      <trkpt lat="42.90415" lon="0.20942">
        <ele>1747.33</ele>
        <time>2016-07-05T08:37:20Z</time>
      </trkpt>
      <trkpt lat="42.90405" lon="0.20938">
        <ele>1747.33</ele>
        <time>2016-07-05T08:37:32Z</time>
      </trkpt>
      <trkpt lat="42.90398" lon="0.20931">
        <ele>1747.33</ele>
        <time>2016-07-05T08:37:46Z</time>
      </trkpt>
      <trkpt lat="42.90391" lon="0.20928">
        <ele>1747.81</ele>
        <time>2016-07-05T08:37:59Z</time>
      </trkpt>
      <trkpt lat="42.90388" lon="0.20923">
        <ele>1749.26</ele>
        <time>2016-07-05T08:38:11Z</time>
      </trkpt>
      <trkpt lat="42.90385" lon="0.20919">
        <ele>1751.18</ele>
        <time>2016-07-05T08:38:26Z</time>
      </trkpt>
      <trkpt lat="42.90379" lon="0.20914">
        <ele>1752.62</ele>
        <time>2016-07-05T08:38:38Z</time>
      </trkpt>
      <trkpt lat="42.9037" lon="0.20911">
        <ele>1751.66</ele>
        <time>2016-07-05T08:38:49Z</time>
      </trkpt>
      <trkpt lat="42.90365" lon="0.20907">
        <ele>1751.66</ele>
        <time>2016-07-05T08:39:00Z</time>
      </trkpt>
      <trkpt lat="42.90363" lon="0.20906">
        <ele>1752.14</ele>
        <time>2016-07-05T08:39:11Z</time>
      </trkpt>
      <trkpt lat="42.90358" lon="0.20902">
        <ele>1751.66</ele>
        <time>2016-07-05T08:39:22Z</time>
      </trkpt>
      <trkpt lat="42.90353" lon="0.20898">
        <ele>1753.58</ele>
        <time>2016-07-05T08:39:36Z</time>
      </trkpt>
      <trkpt lat="42.90347" lon="0.20894">
        <ele>1752.62</ele>
        <time>2016-07-05T08:39:46Z</time>
      </trkpt>
      <trkpt lat="42.90342" lon="0.20888">
        <ele>1754.06</ele>
        <time>2016-07-05T08:39:57Z</time>
      </trkpt>
      <trkpt lat="42.90336" lon="0.20885">
        <ele>1755.5</ele>
        <time>2016-07-05T08:40:08Z</time>
      </trkpt>
      <trkpt lat="42.9033" lon="0.20882">
        <ele>1755.99</ele>
        <time>2016-07-05T08:40:20Z</time>
      </trkpt>
      <trkpt lat="42.90324" lon="0.20881">
        <ele>1755.5</ele>
        <time>2016-07-05T08:40:30Z</time>
      </trkpt>
      <trkpt lat="42.9032" lon="0.20879">
        <ele>1756.95</ele>
        <time>2016-07-05T08:40:39Z</time>
      </trkpt>
      <trkpt lat="42.90317" lon="0.20878">
        <ele>1756.95</ele>
        <time>2016-07-05T08:40:50Z</time>
      </trkpt>
      <trkpt lat="42.90314" lon="0.2087">
        <ele>1760.31</ele>
        <time>2016-07-05T08:41:02Z</time>
      </trkpt>
      <trkpt lat="42.90311" lon="0.20868">
        <ele>1761.75</ele>
        <time>2016-07-05T08:41:08Z</time>
      </trkpt>
      <trkpt lat="42.90306" lon="0.20862">
        <ele>1762.71</ele>
        <time>2016-07-05T08:41:21Z</time>
      </trkpt>
      <trkpt lat="42.90305" lon="0.20859">
        <ele>1763.2</ele>
        <time>2016-07-05T08:41:23Z</time>
      </trkpt>
      <trkpt lat="42.90297" lon="0.20858">
        <ele>1763.2</ele>
        <time>2016-07-05T08:41:34Z</time>
      </trkpt>
      <trkpt lat="42.9029" lon="0.20859">
        <ele>1764.16</ele>
        <time>2016-07-05T08:41:44Z</time>
      </trkpt>
      <trkpt lat="42.90284" lon="0.20859">
        <ele>1768.48</ele>
        <time>2016-07-05T08:41:55Z</time>
      </trkpt>
      <trkpt lat="42.90281" lon="0.20852">
        <ele>1771.37</ele>
        <time>2016-07-05T08:42:07Z</time>
      </trkpt>
      <trkpt lat="42.90282" lon="0.20851">
        <ele>1778.58</ele>
        <time>2016-07-05T08:42:37Z</time>
      </trkpt>
      <trkpt lat="42.90285" lon="0.20852">
        <ele>1779.54</ele>
        <time>2016-07-05T08:43:00Z</time>
      </trkpt>
      <trkpt lat="42.90288" lon="0.20852">
        <ele>1782.9</ele>
        <time>2016-07-05T08:43:31Z</time>
      </trkpt>
      <trkpt lat="42.90288" lon="0.20849">
        <ele>1780.5</ele>
        <time>2016-07-05T08:43:42Z</time>
      </trkpt>
      <trkpt lat="42.90284" lon="0.2085">
        <ele>1781.94</ele>
        <time>2016-07-05T08:43:51Z</time>
      </trkpt>
      <trkpt lat="42.9028" lon="0.20851">
        <ele>1781.46</ele>
        <time>2016-07-05T08:44:03Z</time>
      </trkpt>
      <trkpt lat="42.90274" lon="0.20847">
        <ele>1778.58</ele>
        <time>2016-07-05T08:44:16Z</time>
      </trkpt>
      <trkpt lat="42.90274" lon="0.20842">
        <ele>1779.06</ele>
        <time>2016-07-05T08:44:32Z</time>
      </trkpt>
      <trkpt lat="42.9027" lon="0.20841">
        <ele>1779.06</ele>
        <time>2016-07-05T08:44:42Z</time>
      </trkpt>
      <trkpt lat="42.90266" lon="0.20842">
        <ele>1779.54</ele>
        <time>2016-07-05T08:44:54Z</time>
      </trkpt>
      <trkpt lat="42.90265" lon="0.20838">
        <ele>1780.5</ele>
        <time>2016-07-05T08:45:08Z</time>
      </trkpt>
      <trkpt lat="42.90261" lon="0.2084">
        <ele>1783.38</ele>
        <time>2016-07-05T08:45:23Z</time>
      </trkpt>
      <trkpt lat="42.9026" lon="0.20837">
        <ele>1790.59</ele>
        <time>2016-07-05T08:45:54Z</time>
      </trkpt>
      <trkpt lat="42.90256" lon="0.20837">
        <ele>1793</ele>
        <time>2016-07-05T08:46:06Z</time>
      </trkpt>
      <trkpt lat="42.90252" lon="0.20836">
        <ele>1796.36</ele>
        <time>2016-07-05T08:46:21Z</time>
      </trkpt>
      <trkpt lat="42.90251" lon="0.20835">
        <ele>1797.8</ele>
        <time>2016-07-05T08:46:33Z</time>
      </trkpt>
      <trkpt lat="42.90248" lon="0.2084">
        <ele>1795.4</ele>
        <time>2016-07-05T08:46:46Z</time>
      </trkpt>
      <trkpt lat="42.90245" lon="0.20841">
        <ele>1795.4</ele>
        <time>2016-07-05T08:46:50Z</time>
      </trkpt>
      <trkpt lat="42.90238" lon="0.20845">
        <ele>1793.48</ele>
        <time>2016-07-05T08:47:03Z</time>
      </trkpt>
      <trkpt lat="42.90232" lon="0.20845">
        <ele>1794.92</ele>
        <time>2016-07-05T08:47:15Z</time>
      </trkpt>
      <trkpt lat="42.90224" lon="0.20845">
        <ele>1795.88</ele>
        <time>2016-07-05T08:47:28Z</time>
      </trkpt>
      <trkpt lat="42.90219" lon="0.20843">
        <ele>1795.88</ele>
        <time>2016-07-05T08:47:41Z</time>
      </trkpt>
      <trkpt lat="42.90218" lon="0.2084">
        <ele>1799.24</ele>
        <time>2016-07-05T08:47:53Z</time>
      </trkpt>
      <trkpt lat="42.90216" lon="0.20841">
        <ele>1806.45</ele>
        <time>2016-07-05T08:48:17Z</time>
      </trkpt>
      <trkpt lat="42.90214" lon="0.20836">
        <ele>1809.34</ele>
        <time>2016-07-05T08:48:27Z</time>
      </trkpt>
      <trkpt lat="42.90218" lon="0.20826">
        <ele>1812.22</ele>
        <time>2016-07-05T08:48:42Z</time>
      </trkpt>
      <trkpt lat="42.90218" lon="0.20819">
        <ele>1814.63</ele>
        <time>2016-07-05T08:48:54Z</time>
      </trkpt>
      <trkpt lat="42.90215" lon="0.20816">
        <ele>1815.59</ele>
        <time>2016-07-05T08:49:09Z</time>
      </trkpt>
      <trkpt lat="42.90213" lon="0.2081">
        <ele>1817.03</ele>
        <time>2016-07-05T08:49:20Z</time>
      </trkpt>
      <trkpt lat="42.90208" lon="0.20805">
        <ele>1818.95</ele>
        <time>2016-07-05T08:49:35Z</time>
      </trkpt>
      <trkpt lat="42.90204" lon="0.20802">
        <ele>1821.35</ele>
        <time>2016-07-05T08:49:45Z</time>
      </trkpt>
      <trkpt lat="42.90199" lon="0.20802">
        <ele>1823.76</ele>
        <time>2016-07-05T08:49:59Z</time>
      </trkpt>
      <trkpt lat="42.90196" lon="0.20803">
        <ele>1826.16</ele>
        <time>2016-07-05T08:50:11Z</time>
      </trkpt>
      <trkpt lat="42.90192" lon="0.20802">
        <ele>1826.64</ele>
        <time>2016-07-05T08:50:27Z</time>
      </trkpt>
      <trkpt lat="42.90185" lon="0.20797">
        <ele>1827.6</ele>
        <time>2016-07-05T08:50:40Z</time>
      </trkpt>
      <trkpt lat="42.9018" lon="0.20792">
        <ele>1829.05</ele>
        <time>2016-07-05T08:50:53Z</time>
      </trkpt>
      <trkpt lat="42.90178" lon="0.20792">
        <ele>1831.45</ele>
        <time>2016-07-05T08:51:03Z</time>
      </trkpt>
      <trkpt lat="42.90175" lon="0.20794">
        <ele>1832.41</ele>
        <time>2016-07-05T08:51:09Z</time>
      </trkpt>
      <trkpt lat="42.90168" lon="0.20794">
        <ele>1834.33</ele>
        <time>2016-07-05T08:51:22Z</time>
      </trkpt>
      <trkpt lat="42.90164" lon="0.20794">
        <ele>1835.29</ele>
        <time>2016-07-05T08:51:30Z</time>
      </trkpt>
      <trkpt lat="42.9016" lon="0.20796">
        <ele>1838.18</ele>
        <time>2016-07-05T08:51:41Z</time>
      </trkpt>
      <trkpt lat="42.90156" lon="0.20795">
        <ele>1840.58</ele>
        <time>2016-07-05T08:51:51Z</time>
      </trkpt>
      <trkpt lat="42.90152" lon="0.20792">
        <ele>1843.47</ele>
        <time>2016-07-05T08:52:03Z</time>
      </trkpt>
      <trkpt lat="42.90153" lon="0.20781">
        <ele>1844.43</ele>
        <time>2016-07-05T08:52:15Z</time>
      </trkpt>
      <trkpt lat="42.90158" lon="0.20772">
        <ele>1846.35</ele>
        <time>2016-07-05T08:52:27Z</time>
      </trkpt>
      <trkpt lat="42.9016" lon="0.2077">
        <ele>1846.83</ele>
        <time>2016-07-05T08:52:31Z</time>
      </trkpt>
      <trkpt lat="42.90168" lon="0.20762">
        <ele>1848.27</ele>
        <time>2016-07-05T08:52:45Z</time>
      </trkpt>
      <trkpt lat="42.90173" lon="0.20755">
        <ele>1849.71</ele>
        <time>2016-07-05T08:52:58Z</time>
      </trkpt>
      <trkpt lat="42.90179" lon="0.20752">
        <ele>1851.64</ele>
        <time>2016-07-05T08:53:10Z</time>
      </trkpt>
      <trkpt lat="42.90184" lon="0.20748">
        <ele>1853.56</ele>
        <time>2016-07-05T08:53:21Z</time>
      </trkpt>
      <trkpt lat="42.90185" lon="0.20745">
        <ele>1856.92</ele>
        <time>2016-07-05T08:53:45Z</time>
      </trkpt>
      <trkpt lat="42.90181" lon="0.20747">
        <ele>1858.37</ele>
        <time>2016-07-05T08:53:54Z</time>
      </trkpt>
      <trkpt lat="42.90177" lon="0.2074">
        <ele>1859.33</ele>
        <time>2016-07-05T08:54:04Z</time>
      </trkpt>
      <trkpt lat="42.90175" lon="0.20738">
        <ele>1860.29</ele>
        <time>2016-07-05T08:54:16Z</time>
      </trkpt>
      <trkpt lat="42.90174" lon="0.20738">
        <ele>1860.29</ele>
        <time>2016-07-05T08:54:17Z</time>
      </trkpt>
      <trkpt lat="42.90168" lon="0.20732">
        <ele>1858.85</ele>
        <time>2016-07-05T08:54:30Z</time>
      </trkpt>
      <trkpt lat="42.90165" lon="0.20728">
        <ele>1861.25</ele>
        <time>2016-07-05T08:54:42Z</time>
      </trkpt>
      <trkpt lat="42.9016" lon="0.20719">
        <ele>1860.29</ele>
        <time>2016-07-05T08:54:53Z</time>
      </trkpt>
      <trkpt lat="42.90161" lon="0.20713">
        <ele>1862.21</ele>
        <time>2016-07-05T08:57:32Z</time>
      </trkpt>
      <trkpt lat="42.9016" lon="0.20714">
        <ele>1862.21</ele>
        <time>2016-07-05T08:57:48Z</time>
      </trkpt>
      <trkpt lat="42.90158" lon="0.20709">
        <ele>1863.65</ele>
        <time>2016-07-05T08:58:26Z</time>
      </trkpt>
      <trkpt lat="42.90158" lon="0.20707">
        <ele>1864.61</ele>
        <time>2016-07-05T08:58:47Z</time>
      </trkpt>
      <trkpt lat="42.90159" lon="0.20707">
        <ele>1863.17</ele>
        <time>2016-07-05T08:59:06Z</time>
      </trkpt>
      <trkpt lat="42.9016" lon="0.2071">
        <ele>1862.21</ele>
        <time>2016-07-05T08:59:30Z</time>
      </trkpt>
      <trkpt lat="42.90159" lon="0.20712">
        <ele>1864.13</ele>
        <time>2016-07-05T09:00:01Z</time>
      </trkpt>
      <trkpt lat="42.90158" lon="0.20707">
        <ele>1865.58</ele>
        <time>2016-07-05T09:00:21Z</time>
      </trkpt>
      <trkpt lat="42.90153" lon="0.20699">
        <ele>1867.02</ele>
        <time>2016-07-05T09:00:37Z</time>
      </trkpt>
      <trkpt lat="42.90149" lon="0.20684">
        <ele>1870.38</ele>
        <time>2016-07-05T09:00:56Z</time>
      </trkpt>
      <trkpt lat="42.90145" lon="0.20673">
        <ele>1869.42</ele>
        <time>2016-07-05T09:01:12Z</time>
      </trkpt>
      <trkpt lat="42.9014" lon="0.20664">
        <ele>1870.38</ele>
        <time>2016-07-05T09:01:28Z</time>
      </trkpt>
      <trkpt lat="42.90134" lon="0.20654">
        <ele>1872.79</ele>
        <time>2016-07-05T09:01:44Z</time>
      </trkpt>
      <trkpt lat="42.9013" lon="0.20642">
        <ele>1875.67</ele>
        <time>2016-07-05T09:02:01Z</time>
      </trkpt>
      <trkpt lat="42.90127" lon="0.2063">
        <ele>1877.59</ele>
        <time>2016-07-05T09:02:19Z</time>
      </trkpt>
      <trkpt lat="42.90121" lon="0.20622">
        <ele>1880.96</ele>
        <time>2016-07-05T09:02:36Z</time>
      </trkpt>
      <trkpt lat="42.90116" lon="0.20611">
        <ele>1882.88</ele>
        <time>2016-07-05T09:02:53Z</time>
      </trkpt>
      <trkpt lat="42.90111" lon="0.20598">
        <ele>1885.76</ele>
        <time>2016-07-05T09:03:09Z</time>
      </trkpt>
      <trkpt lat="42.90106" lon="0.20589">
        <ele>1887.21</ele>
        <time>2016-07-05T09:03:26Z</time>
      </trkpt>
      <trkpt lat="42.90102" lon="0.20578">
        <ele>1890.57</ele>
        <time>2016-07-05T09:03:42Z</time>
      </trkpt>
      <trkpt lat="42.90099" lon="0.20569">
        <ele>1891.53</ele>
        <time>2016-07-05T09:04:01Z</time>
      </trkpt>
      <trkpt lat="42.90094" lon="0.20558">
        <ele>1894.42</ele>
        <time>2016-07-05T09:04:17Z</time>
      </trkpt>
      <trkpt lat="42.90092" lon="0.20549">
        <ele>1896.34</ele>
        <time>2016-07-05T09:04:32Z</time>
      </trkpt>
      <trkpt lat="42.90088" lon="0.20543">
        <ele>1897.78</ele>
        <time>2016-07-05T09:04:48Z</time>
      </trkpt>
      <trkpt lat="42.90082" lon="0.20536">
        <ele>1900.66</ele>
        <time>2016-07-05T09:05:07Z</time>
      </trkpt>
      <trkpt lat="42.90076" lon="0.20525">
        <ele>1904.03</ele>
        <time>2016-07-05T09:05:25Z</time>
      </trkpt>
      <trkpt lat="42.90072" lon="0.20513">
        <ele>1905.47</ele>
        <time>2016-07-05T09:05:43Z</time>
      </trkpt>
      <trkpt lat="42.90069" lon="0.20503">
        <ele>1907.39</ele>
        <time>2016-07-05T09:06:01Z</time>
      </trkpt>
      <trkpt lat="42.90065" lon="0.20495">
        <ele>1910.28</ele>
        <time>2016-07-05T09:06:20Z</time>
      </trkpt>
      <trkpt lat="42.90062" lon="0.20489">
        <ele>1912.68</ele>
        <time>2016-07-05T09:06:34Z</time>
      </trkpt>
      <trkpt lat="42.90058" lon="0.20486">
        <ele>1913.16</ele>
        <time>2016-07-05T09:06:47Z</time>
      </trkpt>
      <trkpt lat="42.90053" lon="0.20475">
        <ele>1914.12</ele>
        <time>2016-07-05T09:07:02Z</time>
      </trkpt>
      <trkpt lat="42.90046" lon="0.20464">
        <ele>1918.45</ele>
        <time>2016-07-05T09:07:20Z</time>
      </trkpt>
      <trkpt lat="42.90038" lon="0.20458">
        <ele>1920.37</ele>
        <time>2016-07-05T09:07:35Z</time>
      </trkpt>
      <trkpt lat="42.90034" lon="0.20446">
        <ele>1922.29</ele>
        <time>2016-07-05T09:07:52Z</time>
      </trkpt>
      <trkpt lat="42.90029" lon="0.20436">
        <ele>1923.74</ele>
        <time>2016-07-05T09:08:09Z</time>
      </trkpt>
      <trkpt lat="42.90023" lon="0.20434">
        <ele>1926.62</ele>
        <time>2016-07-05T09:08:27Z</time>
      </trkpt>
      <trkpt lat="42.90017" lon="0.20433">
        <ele>1929.5</ele>
        <time>2016-07-05T09:08:40Z</time>
      </trkpt>
      <trkpt lat="42.90011" lon="0.20432">
        <ele>1930.95</ele>
        <time>2016-07-05T09:08:54Z</time>
      </trkpt>
      <trkpt lat="42.90003" lon="0.20432">
        <ele>1933.35</ele>
        <time>2016-07-05T09:09:09Z</time>
      </trkpt>
      <trkpt lat="42.89996" lon="0.20433">
        <ele>1935.75</ele>
        <time>2016-07-05T09:09:22Z</time>
      </trkpt>
      <trkpt lat="42.89994" lon="0.20431">
        <ele>1937.67</ele>
        <time>2016-07-05T09:09:39Z</time>
      </trkpt>
      <trkpt lat="42.89993" lon="0.20431">
        <ele>1936.23</ele>
        <time>2016-07-05T09:10:00Z</time>
      </trkpt>
      <trkpt lat="42.89991" lon="0.20429">
        <ele>1938.64</ele>
        <time>2016-07-05T09:12:40Z</time>
      </trkpt>
      <trkpt lat="42.89987" lon="0.20424">
        <ele>1937.67</ele>
        <time>2016-07-05T09:12:57Z</time>
      </trkpt>
      <trkpt lat="42.89987" lon="0.20422">
        <ele>1937.19</ele>
        <time>2016-07-05T09:13:13Z</time>
      </trkpt>
      <trkpt lat="42.89982" lon="0.20412">
        <ele>1940.08</ele>
        <time>2016-07-05T09:13:28Z</time>
      </trkpt>
      <trkpt lat="42.89975" lon="0.20407">
        <ele>1942.96</ele>
        <time>2016-07-05T09:13:41Z</time>
      </trkpt>
      <trkpt lat="42.89971" lon="0.20394">
        <ele>1945.85</ele>
        <time>2016-07-05T09:13:55Z</time>
      </trkpt>
      <trkpt lat="42.89967" lon="0.20382">
        <ele>1948.73</ele>
        <time>2016-07-05T09:14:08Z</time>
      </trkpt>
      <trkpt lat="42.89963" lon="0.2037">
        <ele>1951.13</ele>
        <time>2016-07-05T09:14:25Z</time>
      </trkpt>
      <trkpt lat="42.89959" lon="0.20359">
        <ele>1952.09</ele>
        <time>2016-07-05T09:14:41Z</time>
      </trkpt>
      <trkpt lat="42.89955" lon="0.20351">
        <ele>1952.09</ele>
        <time>2016-07-05T09:14:51Z</time>
      </trkpt>
      <trkpt lat="42.89951" lon="0.20336">
        <ele>1953.06</ele>
        <time>2016-07-05T09:15:06Z</time>
      </trkpt>
      <trkpt lat="42.89948" lon="0.20321">
        <ele>1955.94</ele>
        <time>2016-07-05T09:15:24Z</time>
      </trkpt>
      <trkpt lat="42.89946" lon="0.20309">
        <ele>1956.9</ele>
        <time>2016-07-05T09:15:38Z</time>
      </trkpt>
      <trkpt lat="42.89944" lon="0.20297">
        <ele>1958.82</ele>
        <time>2016-07-05T09:15:51Z</time>
      </trkpt>
      <trkpt lat="42.89942" lon="0.20285">
        <ele>1960.75</ele>
        <time>2016-07-05T09:16:06Z</time>
      </trkpt>
      <trkpt lat="42.89938" lon="0.20273">
        <ele>1962.19</ele>
        <time>2016-07-05T09:16:19Z</time>
      </trkpt>
      <trkpt lat="42.89931" lon="0.20267">
        <ele>1961.71</ele>
        <time>2016-07-05T09:16:30Z</time>
      </trkpt>
      <trkpt lat="42.89926" lon="0.20265">
        <ele>1961.23</ele>
        <time>2016-07-05T09:16:37Z</time>
      </trkpt>
      <trkpt lat="42.89923" lon="0.20261">
        <ele>1961.71</ele>
        <time>2016-07-05T09:16:41Z</time>
      </trkpt>
      <trkpt lat="42.89915" lon="0.20252">
        <ele>1961.71</ele>
        <time>2016-07-05T09:16:55Z</time>
      </trkpt>
      <trkpt lat="42.89907" lon="0.20242">
        <ele>1964.11</ele>
        <time>2016-07-05T09:17:09Z</time>
      </trkpt>
      <trkpt lat="42.89899" lon="0.20237">
        <ele>1965.55</ele>
        <time>2016-07-05T09:17:22Z</time>
      </trkpt>
      <trkpt lat="42.89895" lon="0.20233">
        <ele>1965.55</ele>
        <time>2016-07-05T09:17:28Z</time>
      </trkpt>
      <trkpt lat="42.89891" lon="0.20226">
        <ele>1965.55</ele>
        <time>2016-07-05T09:17:35Z</time>
      </trkpt>
      <trkpt lat="42.8989" lon="0.20221">
        <ele>1966.03</ele>
        <time>2016-07-05T09:17:39Z</time>
      </trkpt>
      <trkpt lat="42.89882" lon="0.20211">
        <ele>1968.44</ele>
        <time>2016-07-05T09:17:52Z</time>
      </trkpt>
      <trkpt lat="42.89874" lon="0.20202">
        <ele>1970.36</ele>
        <time>2016-07-05T09:18:05Z</time>
      </trkpt>
      <trkpt lat="42.89867" lon="0.20191">
        <ele>1971.8</ele>
        <time>2016-07-05T09:18:19Z</time>
      </trkpt>
      <trkpt lat="42.89859" lon="0.20179">
        <ele>1971.32</ele>
        <time>2016-07-05T09:18:33Z</time>
      </trkpt>
      <trkpt lat="42.89859" lon="0.20176">
        <ele>1971.32</ele>
        <time>2016-07-05T09:18:36Z</time>
      </trkpt>
      <trkpt lat="42.89857" lon="0.20162">
        <ele>1971.8</ele>
        <time>2016-07-05T09:18:49Z</time>
      </trkpt>
      <trkpt lat="42.89855" lon="0.2015">
        <ele>1974.2</ele>
        <time>2016-07-05T09:19:04Z</time>
      </trkpt>
      <trkpt lat="42.89857" lon="0.20137">
        <ele>1977.57</ele>
        <time>2016-07-05T09:19:19Z</time>
      </trkpt>
      <trkpt lat="42.89859" lon="0.20127">
        <ele>1979.49</ele>
        <time>2016-07-05T09:19:33Z</time>
      </trkpt>
      <trkpt lat="42.89863" lon="0.20118">
        <ele>1982.38</ele>
        <time>2016-07-05T09:19:49Z</time>
      </trkpt>
      <trkpt lat="42.89867" lon="0.2011">
        <ele>1982.86</ele>
        <time>2016-07-05T09:20:05Z</time>
      </trkpt>
      <trkpt lat="42.89871" lon="0.20098">
        <ele>1984.78</ele>
        <time>2016-07-05T09:20:23Z</time>
      </trkpt>
      <trkpt lat="42.89874" lon="0.20092">
        <ele>1986.22</ele>
        <time>2016-07-05T09:20:35Z</time>
      </trkpt>
      <trkpt lat="42.89874" lon="0.20087">
        <ele>1986.7</ele>
        <time>2016-07-05T09:20:48Z</time>
      </trkpt>
      <trkpt lat="42.89877" lon="0.20075">
        <ele>1989.59</ele>
        <time>2016-07-05T09:21:07Z</time>
      </trkpt>
      <trkpt lat="42.89878" lon="0.20069">
        <ele>1991.99</ele>
        <time>2016-07-05T09:21:21Z</time>
      </trkpt>
      <trkpt lat="42.89877" lon="0.20066">
        <ele>1993.91</ele>
        <time>2016-07-05T09:21:34Z</time>
      </trkpt>
      <trkpt lat="42.89874" lon="0.20064">
        <ele>1995.83</ele>
        <time>2016-07-05T09:21:46Z</time>
      </trkpt>
      <trkpt lat="42.89871" lon="0.20063">
        <ele>1997.76</ele>
        <time>2016-07-05T09:22:00Z</time>
      </trkpt>
      <trkpt lat="42.89866" lon="0.20065">
        <ele>1998.72</ele>
        <time>2016-07-05T09:22:13Z</time>
      </trkpt>
      <trkpt lat="42.89862" lon="0.20067">
        <ele>1997.76</ele>
        <time>2016-07-05T09:22:27Z</time>
      </trkpt>
      <trkpt lat="42.89859" lon="0.20067">
        <ele>1998.72</ele>
        <time>2016-07-05T09:22:40Z</time>
      </trkpt>
      <trkpt lat="42.89856" lon="0.20066">
        <ele>2000.16</ele>
        <time>2016-07-05T09:27:59Z</time>
      </trkpt>
      <trkpt lat="42.89843" lon="0.20063">
        <ele>1999.2</ele>
        <time>2016-07-05T09:28:16Z</time>
      </trkpt>
      <trkpt lat="42.89836" lon="0.20059">
        <ele>2002.08</ele>
        <time>2016-07-05T09:28:32Z</time>
      </trkpt>
      <trkpt lat="42.89828" lon="0.20055">
        <ele>2005.93</ele>
        <time>2016-07-05T09:28:48Z</time>
      </trkpt>
      <trkpt lat="42.89821" lon="0.20053">
        <ele>2009.77</ele>
        <time>2016-07-05T09:29:03Z</time>
      </trkpt>
      <trkpt lat="42.89816" lon="0.20055">
        <ele>2013.62</ele>
        <time>2016-07-05T09:29:16Z</time>
      </trkpt>
      <trkpt lat="42.89809" lon="0.20052">
        <ele>2015.54</ele>
        <time>2016-07-05T09:29:29Z</time>
      </trkpt>
      <trkpt lat="42.898" lon="0.2005">
        <ele>2017.46</ele>
        <time>2016-07-05T09:29:43Z</time>
      </trkpt>
      <trkpt lat="42.8979" lon="0.20045">
        <ele>2018.91</ele>
        <time>2016-07-05T09:29:58Z</time>
      </trkpt>
      <trkpt lat="42.89783" lon="0.20041">
        <ele>2022.75</ele>
        <time>2016-07-05T09:30:14Z</time>
      </trkpt>
      <trkpt lat="42.89776" lon="0.20034">
        <ele>2025.15</ele>
        <time>2016-07-05T09:30:30Z</time>
      </trkpt>
      <trkpt lat="42.89767" lon="0.20031">
        <ele>2028.04</ele>
        <time>2016-07-05T09:30:47Z</time>
      </trkpt>
      <trkpt lat="42.89762" lon="0.20026">
        <ele>2029.96</ele>
        <time>2016-07-05T09:31:02Z</time>
      </trkpt>
      <trkpt lat="42.89756" lon="0.20022">
        <ele>2030.44</ele>
        <time>2016-07-05T09:31:17Z</time>
      </trkpt>
      <trkpt lat="42.89752" lon="0.20019">
        <ele>2033.33</ele>
        <time>2016-07-05T09:31:31Z</time>
      </trkpt>
      <trkpt lat="42.89744" lon="0.20013">
        <ele>2034.29</ele>
        <time>2016-07-05T09:31:46Z</time>
      </trkpt>
      <trkpt lat="42.89737" lon="0.20011">
        <ele>2035.73</ele>
        <time>2016-07-05T09:31:56Z</time>
      </trkpt>
      <trkpt lat="42.89733" lon="0.20008">
        <ele>2034.77</ele>
        <time>2016-07-05T09:32:03Z</time>
      </trkpt>
      <trkpt lat="42.89722" lon="0.20017">
        <ele>2033.81</ele>
        <time>2016-07-05T09:32:17Z</time>
      </trkpt>
      <trkpt lat="42.89713" lon="0.20019">
        <ele>2035.25</ele>
        <time>2016-07-05T09:32:30Z</time>
      </trkpt>
      <trkpt lat="42.89703" lon="0.20021">
        <ele>2037.65</ele>
        <time>2016-07-05T09:32:45Z</time>
      </trkpt>
      <trkpt lat="42.89695" lon="0.20028">
        <ele>2039.09</ele>
        <time>2016-07-05T09:33:00Z</time>
      </trkpt>
      <trkpt lat="42.89684" lon="0.20033">
        <ele>2039.57</ele>
        <time>2016-07-05T09:33:15Z</time>
      </trkpt>
      <trkpt lat="42.89676" lon="0.20041">
        <ele>2040.54</ele>
        <time>2016-07-05T09:33:30Z</time>
      </trkpt>
      <trkpt lat="42.89675" lon="0.20042">
        <ele>2041.02</ele>
        <time>2016-07-05T09:33:31Z</time>
      </trkpt>
      <trkpt lat="42.89665" lon="0.20047">
        <ele>2041.02</ele>
        <time>2016-07-05T09:33:45Z</time>
      </trkpt>
      <trkpt lat="42.89663" lon="0.20036">
        <ele>2039.57</ele>
        <time>2016-07-05T09:33:58Z</time>
      </trkpt>
      <trkpt lat="42.89664" lon="0.20032">
        <ele>2039.09</ele>
        <time>2016-07-05T09:34:12Z</time>
      </trkpt>
      <trkpt lat="42.8966" lon="0.20021">
        <ele>2040.05</ele>
        <time>2016-07-05T09:34:28Z</time>
      </trkpt>
      <trkpt lat="42.89655" lon="0.20012">
        <ele>2039.09</ele>
        <time>2016-07-05T09:34:42Z</time>
      </trkpt>
      <trkpt lat="42.89655" lon="0.20007">
        <ele>2039.57</ele>
        <time>2016-07-05T09:34:47Z</time>
      </trkpt>
      <trkpt lat="42.89658" lon="0.20005">
        <ele>2041.02</ele>
        <time>2016-07-05T09:34:55Z</time>
      </trkpt>
      <trkpt lat="42.89659" lon="0.19998">
        <ele>2043.42</ele>
        <time>2016-07-05T09:35:07Z</time>
      </trkpt>
      <trkpt lat="42.89657" lon="0.19994">
        <ele>2043.9</ele>
        <time>2016-07-05T09:35:19Z</time>
      </trkpt>
      <trkpt lat="42.89652" lon="0.19988">
        <ele>2045.82</ele>
        <time>2016-07-05T09:35:33Z</time>
      </trkpt>
      <trkpt lat="42.89647" lon="0.19969">
        <ele>2047.26</ele>
        <time>2016-07-05T09:39:14Z</time>
      </trkpt>
      <trkpt lat="42.89644" lon="0.19967">
        <ele>2048.23</ele>
        <time>2016-07-05T09:39:39Z</time>
      </trkpt>
      <trkpt lat="42.89643" lon="0.19963">
        <ele>2048.23</ele>
        <time>2016-07-05T09:39:43Z</time>
      </trkpt>
      <trkpt lat="42.89642" lon="0.19951">
        <ele>2049.67</ele>
        <time>2016-07-05T09:39:55Z</time>
      </trkpt>
      <trkpt lat="42.89641" lon="0.19946">
        <ele>2051.11</ele>
        <time>2016-07-05T09:40:01Z</time>
      </trkpt>
      <trkpt lat="42.89633" lon="0.19937">
        <ele>2051.59</ele>
        <time>2016-07-05T09:40:16Z</time>
      </trkpt>
      <trkpt lat="42.89633" lon="0.19935">
        <ele>2051.11</ele>
        <time>2016-07-05T09:40:18Z</time>
      </trkpt>
      <trkpt lat="42.89631" lon="0.1993">
        <ele>2051.11</ele>
        <time>2016-07-05T09:40:24Z</time>
      </trkpt>
      <trkpt lat="42.89626" lon="0.19921">
        <ele>2050.15</ele>
        <time>2016-07-05T09:40:38Z</time>
      </trkpt>
      <trkpt lat="42.89626" lon="0.1992">
        <ele>2049.67</ele>
        <time>2016-07-05T09:40:40Z</time>
      </trkpt>
      <trkpt lat="42.89625" lon="0.19913">
        <ele>2049.19</ele>
        <time>2016-07-05T09:40:49Z</time>
      </trkpt>
      <trkpt lat="42.89622" lon="0.19903">
        <ele>2050.15</ele>
        <time>2016-07-05T09:41:00Z</time>
      </trkpt>
      <trkpt lat="42.89621" lon="0.19901">
        <ele>2050.63</ele>
        <time>2016-07-05T09:41:04Z</time>
      </trkpt>
      <trkpt lat="42.89617" lon="0.19895">
        <ele>2050.15</ele>
        <time>2016-07-05T09:41:15Z</time>
      </trkpt>
      <trkpt lat="42.89616" lon="0.19894">
        <ele>2051.11</ele>
        <time>2016-07-05T09:41:21Z</time>
      </trkpt>
      <trkpt lat="42.89611" lon="0.19888">
        <ele>2052.07</ele>
        <time>2016-07-05T09:41:30Z</time>
      </trkpt>
      <trkpt lat="42.89606" lon="0.19883">
        <ele>2051.11</ele>
        <time>2016-07-05T09:41:42Z</time>
      </trkpt>
      <trkpt lat="42.896" lon="0.19877">
        <ele>2051.59</ele>
        <time>2016-07-05T09:41:53Z</time>
      </trkpt>
      <trkpt lat="42.89597" lon="0.19875">
        <ele>2052.07</ele>
        <time>2016-07-05T09:42:05Z</time>
      </trkpt>
      <trkpt lat="42.89593" lon="0.19872">
        <ele>2052.55</ele>
        <time>2016-07-05T09:42:17Z</time>
      </trkpt>
      <trkpt lat="42.89591" lon="0.19868">
        <ele>2051.59</ele>
        <time>2016-07-05T09:42:30Z</time>
      </trkpt>
      <trkpt lat="42.89587" lon="0.19863">
        <ele>2051.11</ele>
        <time>2016-07-05T09:42:43Z</time>
      </trkpt>
      <trkpt lat="42.89581" lon="0.19861">
        <ele>2051.59</ele>
        <time>2016-07-05T09:42:55Z</time>
      </trkpt>
      <trkpt lat="42.89574" lon="0.1986">
        <ele>2051.11</ele>
        <time>2016-07-05T09:43:09Z</time>
      </trkpt>
      <trkpt lat="42.89567" lon="0.1986">
        <ele>2050.15</ele>
        <time>2016-07-05T09:43:22Z</time>
      </trkpt>
      <trkpt lat="42.89566" lon="0.19859">
        <ele>2049.67</ele>
        <time>2016-07-05T09:43:24Z</time>
      </trkpt>
      <trkpt lat="42.89558" lon="0.19854">
        <ele>2048.71</ele>
        <time>2016-07-05T09:43:37Z</time>
      </trkpt>
      <trkpt lat="42.89557" lon="0.19854">
        <ele>2049.19</ele>
        <time>2016-07-05T09:43:38Z</time>
      </trkpt>
      <trkpt lat="42.89554" lon="0.1985">
        <ele>2049.67</ele>
        <time>2016-07-05T09:43:46Z</time>
      </trkpt>
      <trkpt lat="42.89548" lon="0.19849">
        <ele>2051.11</ele>
        <time>2016-07-05T09:43:58Z</time>
      </trkpt>
      <trkpt lat="42.89542" lon="0.19844">
        <ele>2051.11</ele>
        <time>2016-07-05T09:44:12Z</time>
      </trkpt>
      <trkpt lat="42.89536" lon="0.19841">
        <ele>2048.71</ele>
        <time>2016-07-05T09:44:27Z</time>
      </trkpt>
      <trkpt lat="42.89533" lon="0.1984">
        <ele>2046.78</ele>
        <time>2016-07-05T09:44:40Z</time>
      </trkpt>
      <trkpt lat="42.89528" lon="0.19836">
        <ele>2047.26</ele>
        <time>2016-07-05T09:44:50Z</time>
      </trkpt>
      <trkpt lat="42.89522" lon="0.19833">
        <ele>2049.19</ele>
        <time>2016-07-05T09:45:03Z</time>
      </trkpt>
      <trkpt lat="42.89517" lon="0.19827">
        <ele>2051.11</ele>
        <time>2016-07-05T09:45:15Z</time>
      </trkpt>
      <trkpt lat="42.89512" lon="0.19827">
        <ele>2051.59</ele>
        <time>2016-07-05T09:45:28Z</time>
      </trkpt>
      <trkpt lat="42.89511" lon="0.19827">
        <ele>2050.63</ele>
        <time>2016-07-05T09:45:43Z</time>
      </trkpt>
      <trkpt lat="42.89509" lon="0.1983">
        <ele>2050.63</ele>
        <time>2016-07-05T09:46:08Z</time>
      </trkpt>
      <trkpt lat="42.89508" lon="0.19825">
        <ele>2050.63</ele>
        <time>2016-07-05T09:46:29Z</time>
      </trkpt>
      <trkpt lat="42.89499" lon="0.19824">
        <ele>2050.63</ele>
        <time>2016-07-05T09:46:42Z</time>
      </trkpt>
      <trkpt lat="42.89492" lon="0.19817">
        <ele>2050.63</ele>
        <time>2016-07-05T09:46:54Z</time>
      </trkpt>
      <trkpt lat="42.89484" lon="0.19811">
        <ele>2051.59</ele>
        <time>2016-07-05T09:47:06Z</time>
      </trkpt>
      <trkpt lat="42.89478" lon="0.19799">
        <ele>2051.59</ele>
        <time>2016-07-05T09:47:18Z</time>
      </trkpt>
      <trkpt lat="42.89476" lon="0.19796">
        <ele>2051.59</ele>
        <time>2016-07-05T09:47:21Z</time>
      </trkpt>
      <trkpt lat="42.89473" lon="0.1979">
        <ele>2052.07</ele>
        <time>2016-07-05T09:47:31Z</time>
      </trkpt>
      <trkpt lat="42.8947" lon="0.19789">
        <ele>2051.11</ele>
        <time>2016-07-05T09:47:36Z</time>
      </trkpt>
      <trkpt lat="42.89465" lon="0.19781">
        <ele>2049.19</ele>
        <time>2016-07-05T09:47:48Z</time>
      </trkpt>
      <trkpt lat="42.89459" lon="0.19776">
        <ele>2049.19</ele>
        <time>2016-07-05T09:48:00Z</time>
      </trkpt>
      <trkpt lat="42.89451" lon="0.19775">
        <ele>2050.63</ele>
        <time>2016-07-05T09:48:11Z</time>
      </trkpt>
      <trkpt lat="42.89448" lon="0.19766">
        <ele>2050.63</ele>
        <time>2016-07-05T09:48:25Z</time>
      </trkpt>
      <trkpt lat="42.89444" lon="0.19758">
        <ele>2053.03</ele>
        <time>2016-07-05T09:48:39Z</time>
      </trkpt>
      <trkpt lat="42.8944" lon="0.19751">
        <ele>2053.99</ele>
        <time>2016-07-05T09:48:52Z</time>
      </trkpt>
      <trkpt lat="42.89435" lon="0.19743">
        <ele>2055.44</ele>
        <time>2016-07-05T09:49:04Z</time>
      </trkpt>
      <trkpt lat="42.89431" lon="0.19736">
        <ele>2057.36</ele>
        <time>2016-07-05T09:49:17Z</time>
      </trkpt>
      <trkpt lat="42.89428" lon="0.19733">
        <ele>2057.36</ele>
        <time>2016-07-05T09:49:24Z</time>
      </trkpt>
      <trkpt lat="42.89419" lon="0.1973">
        <ele>2054.47</ele>
        <time>2016-07-05T09:49:35Z</time>
      </trkpt>
      <trkpt lat="42.89416" lon="0.19727">
        <ele>2054.47</ele>
        <time>2016-07-05T09:49:43Z</time>
      </trkpt>
      <trkpt lat="42.89412" lon="0.19718">
        <ele>2056.88</ele>
        <time>2016-07-05T09:49:56Z</time>
      </trkpt>
      <trkpt lat="42.8941" lon="0.19717">
        <ele>2057.36</ele>
        <time>2016-07-05T09:50:02Z</time>
      </trkpt>
      <trkpt lat="42.89405" lon="0.19715">
        <ele>2057.36</ele>
        <time>2016-07-05T09:50:12Z</time>
      </trkpt>
      <trkpt lat="42.89403" lon="0.19717">
        <ele>2057.36</ele>
        <time>2016-07-05T09:50:20Z</time>
      </trkpt>
      <trkpt lat="42.89398" lon="0.19722">
        <ele>2058.32</ele>
        <time>2016-07-05T09:50:34Z</time>
      </trkpt>
      <trkpt lat="42.89394" lon="0.19725">
        <ele>2062.17</ele>
        <time>2016-07-05T09:50:47Z</time>
      </trkpt>
      <trkpt lat="42.89389" lon="0.19728">
        <ele>2062.17</ele>
        <time>2016-07-05T09:51:02Z</time>
      </trkpt>
      <trkpt lat="42.89383" lon="0.19729">
        <ele>2063.61</ele>
        <time>2016-07-05T09:51:13Z</time>
      </trkpt>
      <trkpt lat="42.89378" lon="0.19731">
        <ele>2065.05</ele>
        <time>2016-07-05T09:51:26Z</time>
      </trkpt>
      <trkpt lat="42.89369" lon="0.19732">
        <ele>2066.97</ele>
        <time>2016-07-05T09:51:39Z</time>
      </trkpt>
      <trkpt lat="42.89367" lon="0.19734">
        <ele>2067.93</ele>
        <time>2016-07-05T09:51:44Z</time>
      </trkpt>
      <trkpt lat="42.8936" lon="0.19737">
        <ele>2067.45</ele>
        <time>2016-07-05T09:51:55Z</time>
      </trkpt>
      <trkpt lat="42.89354" lon="0.19742">
        <ele>2064.57</ele>
        <time>2016-07-05T09:52:07Z</time>
      </trkpt>
      <trkpt lat="42.89345" lon="0.19742">
        <ele>2065.05</ele>
        <time>2016-07-05T09:52:20Z</time>
      </trkpt>
      <trkpt lat="42.89339" lon="0.19743">
        <ele>2065.53</ele>
        <time>2016-07-05T09:52:32Z</time>
      </trkpt>
      <trkpt lat="42.89333" lon="0.19743">
        <ele>2067.45</ele>
        <time>2016-07-05T09:52:43Z</time>
      </trkpt>
      <trkpt lat="42.89332" lon="0.19744">
        <ele>2068.41</ele>
        <time>2016-07-05T09:52:47Z</time>
      </trkpt>
      <trkpt lat="42.89331" lon="0.19746">
        <ele>2069.38</ele>
        <time>2016-07-05T09:53:00Z</time>
      </trkpt>
      <trkpt lat="42.89328" lon="0.19752">
        <ele>2071.3</ele>
        <time>2016-07-05T09:53:10Z</time>
      </trkpt>
      <trkpt lat="42.89324" lon="0.19751">
        <ele>2072.74</ele>
        <time>2016-07-05T09:53:20Z</time>
      </trkpt>
      <trkpt lat="42.8932" lon="0.19752">
        <ele>2075.14</ele>
        <time>2016-07-05T09:53:34Z</time>
      </trkpt>
      <trkpt lat="42.89316" lon="0.19751">
        <ele>2077.07</ele>
        <time>2016-07-05T09:53:45Z</time>
      </trkpt>
      <trkpt lat="42.89312" lon="0.19745">
        <ele>2078.51</ele>
        <time>2016-07-05T09:53:56Z</time>
      </trkpt>
      <trkpt lat="42.89307" lon="0.19744">
        <ele>2079.47</ele>
        <time>2016-07-05T09:54:08Z</time>
      </trkpt>
      <trkpt lat="42.89301" lon="0.19745">
        <ele>2081.39</ele>
        <time>2016-07-05T09:54:22Z</time>
      </trkpt>
      <trkpt lat="42.89294" lon="0.19747">
        <ele>2081.87</ele>
        <time>2016-07-05T09:54:34Z</time>
      </trkpt>
      <trkpt lat="42.89291" lon="0.19753">
        <ele>2080.43</ele>
        <time>2016-07-05T09:54:46Z</time>
      </trkpt>
      <trkpt lat="42.89283" lon="0.19759">
        <ele>2080.43</ele>
        <time>2016-07-05T09:54:59Z</time>
      </trkpt>
      <trkpt lat="42.89283" lon="0.19764">
        <ele>2080.43</ele>
        <time>2016-07-05T09:55:08Z</time>
      </trkpt>
      <trkpt lat="42.8928" lon="0.19769">
        <ele>2081.39</ele>
        <time>2016-07-05T09:55:20Z</time>
      </trkpt>
      <trkpt lat="42.89277" lon="0.19771">
        <ele>2080.43</ele>
        <time>2016-07-05T09:55:30Z</time>
      </trkpt>
      <trkpt lat="42.89276" lon="0.19774">
        <ele>2081.39</ele>
        <time>2016-07-05T09:55:43Z</time>
      </trkpt>
      <trkpt lat="42.89275" lon="0.19779">
        <ele>2081.87</ele>
        <time>2016-07-05T09:56:00Z</time>
      </trkpt>
      <trkpt lat="42.89274" lon="0.1978">
        <ele>2081.87</ele>
        <time>2016-07-05T09:56:18Z</time>
      </trkpt>
      <trkpt lat="42.89272" lon="0.19784">
        <ele>2084.76</ele>
        <time>2016-07-05T09:57:00Z</time>
      </trkpt>
      <trkpt lat="42.89273" lon="0.19784">
        <ele>2084.28</ele>
        <time>2016-07-05T09:57:29Z</time>
      </trkpt>
      <trkpt lat="42.89265" lon="0.1979">
        <ele>2086.2</ele>
        <time>2016-07-05T09:57:43Z</time>
      </trkpt>
      <trkpt lat="42.89259" lon="0.19793">
        <ele>2083.79</ele>
        <time>2016-07-05T09:57:57Z</time>
      </trkpt>
      <trkpt lat="42.89257" lon="0.19795">
        <ele>2083.79</ele>
        <time>2016-07-05T09:58:01Z</time>
      </trkpt>
      <trkpt lat="42.89251" lon="0.19803">
        <ele>2086.2</ele>
        <time>2016-07-05T09:58:13Z</time>
      </trkpt>
      <trkpt lat="42.89246" lon="0.19814">
        <ele>2085.72</ele>
        <time>2016-07-05T09:58:25Z</time>
      </trkpt>
      <trkpt lat="42.89241" lon="0.19828">
        <ele>2085.72</ele>
        <time>2016-07-05T09:58:37Z</time>
      </trkpt>
      <trkpt lat="42.89236" lon="0.19836">
        <ele>2087.16</ele>
        <time>2016-07-05T09:58:51Z</time>
      </trkpt>
      <trkpt lat="42.89238" lon="0.19841">
        <ele>2088.12</ele>
        <time>2016-07-05T09:59:02Z</time>
      </trkpt>
      <trkpt lat="42.89241" lon="0.19845">
        <ele>2088.12</ele>
        <time>2016-07-05T09:59:13Z</time>
      </trkpt>
      <trkpt lat="42.89248" lon="0.19852">
        <ele>2088.6</ele>
        <time>2016-07-05T09:59:23Z</time>
      </trkpt>
      <trkpt lat="42.89252" lon="0.19865">
        <ele>2089.08</ele>
        <time>2016-07-05T09:59:34Z</time>
      </trkpt>
      <trkpt lat="42.89258" lon="0.19869">
        <ele>2090.04</ele>
        <time>2016-07-05T09:59:46Z</time>
      </trkpt>
      <trkpt lat="42.89259" lon="0.1987">
        <ele>2091</ele>
        <time>2016-07-05T09:59:50Z</time>
      </trkpt>
      <trkpt lat="42.89262" lon="0.19878">
        <ele>2092.45</ele>
        <time>2016-07-05T09:59:58Z</time>
      </trkpt>
      <trkpt lat="42.89272" lon="0.19888">
        <ele>2093.41</ele>
        <time>2016-07-05T10:00:10Z</time>
      </trkpt>
      <trkpt lat="42.89275" lon="0.19895">
        <ele>2093.41</ele>
        <time>2016-07-05T10:00:17Z</time>
      </trkpt>
      <trkpt lat="42.89281" lon="0.19908">
        <ele>2092.93</ele>
        <time>2016-07-05T10:00:32Z</time>
      </trkpt>
      <trkpt lat="42.89283" lon="0.19913">
        <ele>2091.49</ele>
        <time>2016-07-05T10:00:45Z</time>
      </trkpt>
      <trkpt lat="42.89286" lon="0.1992">
        <ele>2092.45</ele>
        <time>2016-07-05T10:00:58Z</time>
      </trkpt>
      <trkpt lat="42.89284" lon="0.19927">
        <ele>2094.37</ele>
        <time>2016-07-05T10:01:12Z</time>
      </trkpt>
      <trkpt lat="42.89282" lon="0.19935">
        <ele>2096.29</ele>
        <time>2016-07-05T10:01:24Z</time>
      </trkpt>
      <trkpt lat="42.89275" lon="0.19943">
        <ele>2101.1</ele>
        <time>2016-07-05T10:01:40Z</time>
      </trkpt>
      <trkpt lat="42.89272" lon="0.19948">
        <ele>2103.02</ele>
        <time>2016-07-05T10:01:52Z</time>
      </trkpt>
      <trkpt lat="42.89276" lon="0.19948">
        <ele>2104.94</ele>
        <time>2016-07-05T10:02:03Z</time>
      </trkpt>
      <trkpt lat="42.89285" lon="0.19953">
        <ele>2104.46</ele>
        <time>2016-07-05T10:02:19Z</time>
      </trkpt>
      <trkpt lat="42.89287" lon="0.19953">
        <ele>2104.46</ele>
        <time>2016-07-05T10:02:21Z</time>
      </trkpt>
      <trkpt lat="42.89289" lon="0.19953">
        <ele>2104.94</ele>
        <time>2016-07-05T10:02:24Z</time>
      </trkpt>
      <trkpt lat="42.89292" lon="0.19956">
        <ele>2104.94</ele>
        <time>2016-07-05T10:02:28Z</time>
      </trkpt>
      <trkpt lat="42.89295" lon="0.19962">
        <ele>2104.46</ele>
        <time>2016-07-05T10:02:33Z</time>
      </trkpt>
      <trkpt lat="42.89298" lon="0.19971">
        <ele>2104.46</ele>
        <time>2016-07-05T10:02:44Z</time>
      </trkpt>
      <trkpt lat="42.89299" lon="0.19973">
        <ele>2104.94</ele>
        <time>2016-07-05T10:02:47Z</time>
      </trkpt>
      <trkpt lat="42.89304" lon="0.19986">
        <ele>2104.94</ele>
        <time>2016-07-05T10:03:01Z</time>
      </trkpt>
      <trkpt lat="42.89304" lon="0.19993">
        <ele>2106.87</ele>
        <time>2016-07-05T10:03:12Z</time>
      </trkpt>
      <trkpt lat="42.89305" lon="0.19995">
        <ele>2107.35</ele>
        <time>2016-07-05T10:03:14Z</time>
      </trkpt>
      <trkpt lat="42.89298" lon="0.19999">
        <ele>2110.23</ele>
        <time>2016-07-05T10:03:27Z</time>
      </trkpt>
      <trkpt lat="42.89292" lon="0.19998">
        <ele>2112.15</ele>
        <time>2016-07-05T10:03:41Z</time>
      </trkpt>
      <trkpt lat="42.89287" lon="0.19999">
        <ele>2113.6</ele>
        <time>2016-07-05T10:03:54Z</time>
      </trkpt>
      <trkpt lat="42.89285" lon="0.20002">
        <ele>2115.04</ele>
        <time>2016-07-05T10:04:05Z</time>
      </trkpt>
      <trkpt lat="42.89282" lon="0.20006">
        <ele>2116.96</ele>
        <time>2016-07-05T10:04:17Z</time>
      </trkpt>
      <trkpt lat="42.89287" lon="0.20007">
        <ele>2118.4</ele>
        <time>2016-07-05T10:04:31Z</time>
      </trkpt>
      <trkpt lat="42.89287" lon="0.20008">
        <ele>2119.84</ele>
        <time>2016-07-05T10:04:50Z</time>
      </trkpt>
      <trkpt lat="42.89288" lon="0.20016">
        <ele>2117.92</ele>
        <time>2016-07-05T10:05:04Z</time>
      </trkpt>
      <trkpt lat="42.89288" lon="0.20021">
        <ele>2119.84</ele>
        <time>2016-07-05T10:05:16Z</time>
      </trkpt>
      <trkpt lat="42.89282" lon="0.20023">
        <ele>2121.77</ele>
        <time>2016-07-05T10:05:31Z</time>
      </trkpt>
      <trkpt lat="42.89279" lon="0.20024">
        <ele>2122.25</ele>
        <time>2016-07-05T10:05:44Z</time>
      </trkpt>
      <trkpt lat="42.89278" lon="0.20026">
        <ele>2125.13</ele>
        <time>2016-07-05T10:05:56Z</time>
      </trkpt>
      <trkpt lat="42.89277" lon="0.20029">
        <ele>2128.02</ele>
        <time>2016-07-05T10:06:07Z</time>
      </trkpt>
      <trkpt lat="42.89278" lon="0.20036">
        <ele>2128.98</ele>
        <time>2016-07-05T10:06:19Z</time>
      </trkpt>
      <trkpt lat="42.89278" lon="0.20046">
        <ele>2128.98</ele>
        <time>2016-07-05T10:06:30Z</time>
      </trkpt>
      <trkpt lat="42.89276" lon="0.20052">
        <ele>2128.98</ele>
        <time>2016-07-05T10:06:39Z</time>
      </trkpt>
      <trkpt lat="42.89273" lon="0.20059">
        <ele>2129.94</ele>
        <time>2016-07-05T10:06:53Z</time>
      </trkpt>
      <trkpt lat="42.89271" lon="0.20068">
        <ele>2130.42</ele>
        <time>2016-07-05T10:07:07Z</time>
      </trkpt>
      <trkpt lat="42.89269" lon="0.20074">
        <ele>2132.34</ele>
        <time>2016-07-05T10:07:18Z</time>
      </trkpt>
      <trkpt lat="42.89264" lon="0.2007">
        <ele>2133.3</ele>
        <time>2016-07-05T10:07:37Z</time>
      </trkpt>
      <trkpt lat="42.89256" lon="0.20077">
        <ele>2133.78</ele>
        <time>2016-07-05T10:07:51Z</time>
      </trkpt>
      <trkpt lat="42.89255" lon="0.20084">
        <ele>2130.42</ele>
        <time>2016-07-05T10:08:05Z</time>
      </trkpt>
      <trkpt lat="42.89251" lon="0.20085">
        <ele>2130.42</ele>
        <time>2016-07-05T10:08:12Z</time>
      </trkpt>
      <trkpt lat="42.89243" lon="0.20083">
        <ele>2129.94</ele>
        <time>2016-07-05T10:08:23Z</time>
      </trkpt>
      <trkpt lat="42.89243" lon="0.20084">
        <ele>2130.42</ele>
        <time>2016-07-05T10:08:39Z</time>
      </trkpt>
      <trkpt lat="42.89238" lon="0.20086">
        <ele>2130.9</ele>
        <time>2016-07-05T10:08:49Z</time>
      </trkpt>
      <trkpt lat="42.89233" lon="0.20087">
        <ele>2131.86</ele>
        <time>2016-07-05T10:08:57Z</time>
      </trkpt>
      <trkpt lat="42.89232" lon="0.20088">
        <ele>2132.34</ele>
        <time>2016-07-05T10:08:59Z</time>
      </trkpt>
      <trkpt lat="42.89225" lon="0.20084">
        <ele>2133.78</ele>
        <time>2016-07-05T10:09:10Z</time>
      </trkpt>
      <trkpt lat="42.89218" lon="0.20087">
        <ele>2133.78</ele>
        <time>2016-07-05T10:09:21Z</time>
      </trkpt>
      <trkpt lat="42.89217" lon="0.2009">
        <ele>2133.3</ele>
        <time>2016-07-05T10:09:26Z</time>
      </trkpt>
      <trkpt lat="42.89214" lon="0.20092">
        <ele>2133.3</ele>
        <time>2016-07-05T10:09:30Z</time>
      </trkpt>
      <trkpt lat="42.89204" lon="0.201">
        <ele>2133.78</ele>
        <time>2016-07-05T10:09:43Z</time>
      </trkpt>
      <trkpt lat="42.89196" lon="0.20101">
        <ele>2133.3</ele>
        <time>2016-07-05T10:09:55Z</time>
      </trkpt>
      <trkpt lat="42.89185" lon="0.20101">
        <ele>2133.3</ele>
        <time>2016-07-05T10:10:08Z</time>
      </trkpt>
      <trkpt lat="42.89178" lon="0.201">
        <ele>2134.26</ele>
        <time>2016-07-05T10:10:20Z</time>
      </trkpt>
      <trkpt lat="42.89171" lon="0.20097">
        <ele>2134.26</ele>
        <time>2016-07-05T10:10:32Z</time>
      </trkpt>
      <trkpt lat="42.8917" lon="0.20095">
        <ele>2134.26</ele>
        <time>2016-07-05T10:10:34Z</time>
      </trkpt>
      <trkpt lat="42.89165" lon="0.20093">
        <ele>2135.71</ele>
        <time>2016-07-05T10:10:46Z</time>
      </trkpt>
      <trkpt lat="42.89162" lon="0.20092">
        <ele>2136.67</ele>
        <time>2016-07-05T10:10:58Z</time>
      </trkpt>
      <trkpt lat="42.89162" lon="0.20091">
        <ele>2137.15</ele>
        <time>2016-07-05T10:11:00Z</time>
      </trkpt>
      <trkpt lat="42.89158" lon="0.20086">
        <ele>2138.11</ele>
        <time>2016-07-05T10:11:12Z</time>
      </trkpt>
      <trkpt lat="42.89154" lon="0.20085">
        <ele>2140.03</ele>
        <time>2016-07-05T10:11:25Z</time>
      </trkpt>
      <trkpt lat="42.8915" lon="0.20083">
        <ele>2141.95</ele>
        <time>2016-07-05T10:11:37Z</time>
      </trkpt>
      <trkpt lat="42.89146" lon="0.20083">
        <ele>2143.88</ele>
        <time>2016-07-05T10:11:50Z</time>
      </trkpt>
      <trkpt lat="42.89141" lon="0.20085">
        <ele>2147.72</ele>
        <time>2016-07-05T10:12:03Z</time>
      </trkpt>
      <trkpt lat="42.89136" lon="0.20087">
        <ele>2154.93</ele>
        <time>2016-07-05T10:19:29Z</time>
      </trkpt>
      <trkpt lat="42.89137" lon="0.20095">
        <ele>2154.93</ele>
        <time>2016-07-05T10:19:45Z</time>
      </trkpt>
      <trkpt lat="42.89134" lon="0.20102">
        <ele>2153.97</ele>
        <time>2016-07-05T10:19:58Z</time>
      </trkpt>
      <trkpt lat="42.89128" lon="0.20105">
        <ele>2154.93</ele>
        <time>2016-07-05T10:20:11Z</time>
      </trkpt>
      <trkpt lat="42.89124" lon="0.20107">
        <ele>2156.37</ele>
        <time>2016-07-05T10:20:23Z</time>
      </trkpt>
      <trkpt lat="42.89118" lon="0.2011">
        <ele>2159.26</ele>
        <time>2016-07-05T10:20:35Z</time>
      </trkpt>
      <trkpt lat="42.89115" lon="0.20114">
        <ele>2160.22</ele>
        <time>2016-07-05T10:20:47Z</time>
      </trkpt>
      <trkpt lat="42.89115" lon="0.20121">
        <ele>2161.18</ele>
        <time>2016-07-05T10:20:59Z</time>
      </trkpt>
      <trkpt lat="42.89114" lon="0.20125">
        <ele>2163.1</ele>
        <time>2016-07-05T10:21:08Z</time>
      </trkpt>
      <trkpt lat="42.89107" lon="0.2013">
        <ele>2165.99</ele>
        <time>2016-07-05T10:21:23Z</time>
      </trkpt>
      <trkpt lat="42.89103" lon="0.20136">
        <ele>2165.51</ele>
        <time>2016-07-05T10:21:33Z</time>
      </trkpt>
      <trkpt lat="42.89098" lon="0.20143">
        <ele>2166.47</ele>
        <time>2016-07-05T10:21:44Z</time>
      </trkpt>
      <trkpt lat="42.89091" lon="0.20152">
        <ele>2167.43</ele>
        <time>2016-07-05T10:21:57Z</time>
      </trkpt>
      <trkpt lat="42.89086" lon="0.20158">
        <ele>2167.43</ele>
        <time>2016-07-05T10:22:09Z</time>
      </trkpt>
      <trkpt lat="42.8908" lon="0.20163">
        <ele>2166.47</ele>
        <time>2016-07-05T10:22:23Z</time>
      </trkpt>
      <trkpt lat="42.89074" lon="0.20162">
        <ele>2165.03</ele>
        <time>2016-07-05T10:22:36Z</time>
      </trkpt>
      <trkpt lat="42.89072" lon="0.20168">
        <ele>2163.1</ele>
        <time>2016-07-05T10:22:49Z</time>
      </trkpt>
      <trkpt lat="42.89072" lon="0.20169">
        <ele>2163.1</ele>
        <time>2016-07-05T10:22:50Z</time>
      </trkpt>
      <trkpt lat="42.8907" lon="0.2018">
        <ele>2164.06</ele>
        <time>2016-07-05T10:23:01Z</time>
      </trkpt>
      <trkpt lat="42.89068" lon="0.20191">
        <ele>2161.66</ele>
        <time>2016-07-05T10:23:14Z</time>
      </trkpt>
      <trkpt lat="42.89066" lon="0.20193">
        <ele>2161.66</ele>
        <time>2016-07-05T10:23:19Z</time>
      </trkpt>
      <trkpt lat="42.89062" lon="0.202">
        <ele>2163.58</ele>
        <time>2016-07-05T10:23:32Z</time>
      </trkpt>
      <trkpt lat="42.89059" lon="0.20207">
        <ele>2164.55</ele>
        <time>2016-07-05T10:23:44Z</time>
      </trkpt>
      <trkpt lat="42.89058" lon="0.20207">
        <ele>2164.55</ele>
        <time>2016-07-05T10:23:45Z</time>
      </trkpt>
      <trkpt lat="42.8905" lon="0.20214">
        <ele>2166.47</ele>
        <time>2016-07-05T10:23:56Z</time>
      </trkpt>
      <trkpt lat="42.89045" lon="0.20218">
        <ele>2166.47</ele>
        <time>2016-07-05T10:24:08Z</time>
      </trkpt>
      <trkpt lat="42.89043" lon="0.20221">
        <ele>2166.47</ele>
        <time>2016-07-05T10:24:14Z</time>
      </trkpt>
      <trkpt lat="42.8904" lon="0.20229">
        <ele>2164.06</ele>
        <time>2016-07-05T10:24:26Z</time>
      </trkpt>
      <trkpt lat="42.8904" lon="0.20233">
        <ele>2163.58</ele>
        <time>2016-07-05T10:24:31Z</time>
      </trkpt>
      <trkpt lat="42.89036" lon="0.20241">
        <ele>2161.66</ele>
        <time>2016-07-05T10:24:46Z</time>
      </trkpt>
      <trkpt lat="42.89034" lon="0.20242">
        <ele>2161.18</ele>
        <time>2016-07-05T10:24:50Z</time>
      </trkpt>
      <trkpt lat="42.89031" lon="0.20247">
        <ele>2159.74</ele>
        <time>2016-07-05T10:25:01Z</time>
      </trkpt>
      <trkpt lat="42.89028" lon="0.20252">
        <ele>2158.78</ele>
        <time>2016-07-05T10:25:15Z</time>
      </trkpt>
      <trkpt lat="42.89022" lon="0.20257">
        <ele>2156.37</ele>
        <time>2016-07-05T10:25:29Z</time>
      </trkpt>
      <trkpt lat="42.89017" lon="0.20263">
        <ele>2155.41</ele>
        <time>2016-07-05T10:25:42Z</time>
      </trkpt>
      <trkpt lat="42.89015" lon="0.20265">
        <ele>2154.93</ele>
        <time>2016-07-05T10:25:48Z</time>
      </trkpt>
      <trkpt lat="42.8901" lon="0.2027">
        <ele>2153.01</ele>
        <time>2016-07-05T10:25:59Z</time>
      </trkpt>
      <trkpt lat="42.89005" lon="0.20273">
        <ele>2151.09</ele>
        <time>2016-07-05T10:26:11Z</time>
      </trkpt>
      <trkpt lat="42.89" lon="0.2028">
        <ele>2149.16</ele>
        <time>2016-07-05T10:26:21Z</time>
      </trkpt>
      <trkpt lat="42.88995" lon="0.20288">
        <ele>2148.68</ele>
        <time>2016-07-05T10:26:32Z</time>
      </trkpt>
      <trkpt lat="42.88988" lon="0.20297">
        <ele>2146.76</ele>
        <time>2016-07-05T10:26:44Z</time>
      </trkpt>
      <trkpt lat="42.88982" lon="0.20306">
        <ele>2146.76</ele>
        <time>2016-07-05T10:26:57Z</time>
      </trkpt>
      <trkpt lat="42.8898" lon="0.20313">
        <ele>2143.88</ele>
        <time>2016-07-05T10:27:11Z</time>
      </trkpt>
      <trkpt lat="42.88978" lon="0.2032">
        <ele>2142.92</ele>
        <time>2016-07-05T10:27:23Z</time>
      </trkpt>
      <trkpt lat="42.88975" lon="0.20324">
        <ele>2142.92</ele>
        <time>2016-07-05T10:27:38Z</time>
      </trkpt>
      <trkpt lat="42.88974" lon="0.2033">
        <ele>2140.03</ele>
        <time>2016-07-05T10:27:55Z</time>
      </trkpt>
      <trkpt lat="42.88971" lon="0.20334">
        <ele>2137.15</ele>
        <time>2016-07-05T10:28:10Z</time>
      </trkpt>
      <trkpt lat="42.88967" lon="0.20338">
        <ele>2136.19</ele>
        <time>2016-07-05T10:28:22Z</time>
      </trkpt>
      <trkpt lat="42.88965" lon="0.20346">
        <ele>2134.74</ele>
        <time>2016-07-05T10:28:35Z</time>
      </trkpt>
      <trkpt lat="42.88962" lon="0.20354">
        <ele>2131.86</ele>
        <time>2016-07-05T10:28:52Z</time>
      </trkpt>
      <trkpt lat="42.88959" lon="0.20362">
        <ele>2129.46</ele>
        <time>2016-07-05T10:29:07Z</time>
      </trkpt>
      <trkpt lat="42.88955" lon="0.20369">
        <ele>2128.98</ele>
        <time>2016-07-05T10:29:22Z</time>
      </trkpt>
      <trkpt lat="42.88948" lon="0.20372">
        <ele>2127.05</ele>
        <time>2016-07-05T10:29:40Z</time>
      </trkpt>
      <trkpt lat="42.88944" lon="0.20379">
        <ele>2126.57</ele>
        <time>2016-07-05T10:29:52Z</time>
      </trkpt>
      <trkpt lat="42.88942" lon="0.2038">
        <ele>2126.09</ele>
        <time>2016-07-05T10:29:59Z</time>
      </trkpt>
      <trkpt lat="42.88938" lon="0.20386">
        <ele>2124.65</ele>
        <time>2016-07-05T10:30:13Z</time>
      </trkpt>
      <trkpt lat="42.88934" lon="0.20388">
        <ele>2124.17</ele>
        <time>2016-07-05T10:30:27Z</time>
      </trkpt>
      <trkpt lat="42.88932" lon="0.20387">
        <ele>2123.69</ele>
        <time>2016-07-05T10:30:40Z</time>
      </trkpt>
      <trkpt lat="42.88933" lon="0.20379">
        <ele>2121.29</ele>
        <time>2016-07-05T10:30:52Z</time>
      </trkpt>
      <trkpt lat="42.8893" lon="0.20384">
        <ele>2117.92</ele>
        <time>2016-07-05T10:31:05Z</time>
      </trkpt>
      <trkpt lat="42.8893" lon="0.20386">
        <ele>2117.92</ele>
        <time>2016-07-05T10:31:07Z</time>
      </trkpt>
      <trkpt lat="42.88925" lon="0.20394">
        <ele>2116.96</ele>
        <time>2016-07-05T10:31:20Z</time>
      </trkpt>
      <trkpt lat="42.88921" lon="0.20402">
        <ele>2117.92</ele>
        <time>2016-07-05T10:31:32Z</time>
      </trkpt>
      <trkpt lat="42.88921" lon="0.20404">
        <ele>2120.32</ele>
        <time>2016-07-05T10:32:01Z</time>
      </trkpt>
      <trkpt lat="42.88922" lon="0.20403">
        <ele>2121.77</ele>
        <time>2016-07-05T10:32:24Z</time>
      </trkpt>
      <trkpt lat="42.8892" lon="0.20402">
        <ele>2121.77</ele>
        <time>2016-07-05T10:32:43Z</time>
      </trkpt>
      <trkpt lat="42.88919" lon="0.20411">
        <ele>2122.25</ele>
        <time>2016-07-05T10:33:00Z</time>
      </trkpt>
      <trkpt lat="42.88913" lon="0.20421">
        <ele>2122.25</ele>
        <time>2016-07-05T10:33:12Z</time>
      </trkpt>
      <trkpt lat="42.88905" lon="0.20427">
        <ele>2123.69</ele>
        <time>2016-07-05T10:33:25Z</time>
      </trkpt>
      <trkpt lat="42.88903" lon="0.2043">
        <ele>2124.17</ele>
        <time>2016-07-05T10:33:29Z</time>
      </trkpt>
      <trkpt lat="42.88902" lon="0.20439">
        <ele>2122.73</ele>
        <time>2016-07-05T10:33:43Z</time>
      </trkpt>
      <trkpt lat="42.889" lon="0.20445">
        <ele>2122.73</ele>
        <time>2016-07-05T10:33:55Z</time>
      </trkpt>
      <trkpt lat="42.88901" lon="0.20453">
        <ele>2123.21</ele>
        <time>2016-07-05T10:34:07Z</time>
      </trkpt>
      <trkpt lat="42.88899" lon="0.20461">
        <ele>2123.69</ele>
        <time>2016-07-05T10:34:18Z</time>
      </trkpt>
      <trkpt lat="42.88895" lon="0.20472">
        <ele>2122.73</ele>
        <time>2016-07-05T10:34:32Z</time>
      </trkpt>
      <trkpt lat="42.88894" lon="0.20475">
        <ele>2122.25</ele>
        <time>2016-07-05T10:34:45Z</time>
      </trkpt>
      <trkpt lat="42.88895" lon="0.20482">
        <ele>2123.21</ele>
        <time>2016-07-05T10:34:56Z</time>
      </trkpt>
      <trkpt lat="42.88892" lon="0.20488">
        <ele>2125.13</ele>
        <time>2016-07-05T10:35:07Z</time>
      </trkpt>
      <trkpt lat="42.88889" lon="0.20496">
        <ele>2126.09</ele>
        <time>2016-07-05T10:35:19Z</time>
      </trkpt>
      <trkpt lat="42.88885" lon="0.20504">
        <ele>2128.02</ele>
        <time>2016-07-05T10:35:31Z</time>
      </trkpt>
      <trkpt lat="42.88883" lon="0.20515">
        <ele>2128.98</ele>
        <time>2016-07-05T10:35:45Z</time>
      </trkpt>
      <trkpt lat="42.88877" lon="0.20517">
        <ele>2129.94</ele>
        <time>2016-07-05T10:36:06Z</time>
      </trkpt>
      <trkpt lat="42.88872" lon="0.20516">
        <ele>2130.9</ele>
        <time>2016-07-05T10:36:15Z</time>
      </trkpt>
      <trkpt lat="42.88868" lon="0.20516">
        <ele>2128.98</ele>
        <time>2016-07-05T10:36:28Z</time>
      </trkpt>
      <trkpt lat="42.88859" lon="0.2051">
        <ele>2128.5</ele>
        <time>2016-07-05T10:36:42Z</time>
      </trkpt>
      <trkpt lat="42.88853" lon="0.20511">
        <ele>2128.5</ele>
        <time>2016-07-05T10:36:51Z</time>
      </trkpt>
      <trkpt lat="42.88846" lon="0.20514">
        <ele>2128.98</ele>
        <time>2016-07-05T10:37:06Z</time>
      </trkpt>
      <trkpt lat="42.88842" lon="0.20516">
        <ele>2128.98</ele>
        <time>2016-07-05T10:37:21Z</time>
      </trkpt>
      <trkpt lat="42.88837" lon="0.2051">
        <ele>2127.53</ele>
        <time>2016-07-05T10:37:33Z</time>
      </trkpt>
      <trkpt lat="42.88837" lon="0.20508">
        <ele>2128.02</ele>
        <time>2016-07-05T10:37:49Z</time>
      </trkpt>
      <trkpt lat="42.88837" lon="0.2051">
        <ele>2128.5</ele>
        <time>2016-07-05T10:38:12Z</time>
      </trkpt>
      <trkpt lat="42.88835" lon="0.20512">
        <ele>2128.5</ele>
        <time>2016-07-05T10:38:27Z</time>
      </trkpt>
      <trkpt lat="42.8883" lon="0.20516">
        <ele>2130.42</ele>
        <time>2016-07-05T10:38:48Z</time>
      </trkpt>
      <trkpt lat="42.88821" lon="0.20516">
        <ele>2129.94</ele>
        <time>2016-07-05T10:39:00Z</time>
      </trkpt>
      <trkpt lat="42.88817" lon="0.20515">
        <ele>2128.98</ele>
        <time>2016-07-05T10:39:05Z</time>
      </trkpt>
      <trkpt lat="42.88811" lon="0.20513">
        <ele>2128.5</ele>
        <time>2016-07-05T10:39:12Z</time>
      </trkpt>
      <trkpt lat="42.888" lon="0.20518">
        <ele>2129.94</ele>
        <time>2016-07-05T10:39:27Z</time>
      </trkpt>
      <trkpt lat="42.88793" lon="0.20519">
        <ele>2129.46</ele>
        <time>2016-07-05T10:39:35Z</time>
      </trkpt>
      <trkpt lat="42.88782" lon="0.20519">
        <ele>2126.57</ele>
        <time>2016-07-05T10:39:48Z</time>
      </trkpt>
      <trkpt lat="42.88774" lon="0.20516">
        <ele>2127.05</ele>
        <time>2016-07-05T10:40:01Z</time>
      </trkpt>
      <trkpt lat="42.88769" lon="0.20516">
        <ele>2125.13</ele>
        <time>2016-07-05T10:40:16Z</time>
      </trkpt>
      <trkpt lat="42.88768" lon="0.20521">
        <ele>2128.98</ele>
        <time>2016-07-05T10:40:34Z</time>
      </trkpt>
      <trkpt lat="42.88767" lon="0.20522">
        <ele>2128.98</ele>
        <time>2016-07-05T10:40:36Z</time>
      </trkpt>
      <trkpt lat="42.88758" lon="0.2052">
        <ele>2129.94</ele>
        <time>2016-07-05T10:40:49Z</time>
      </trkpt>
      <trkpt lat="42.88752" lon="0.20519">
        <ele>2131.38</ele>
        <time>2016-07-05T10:41:04Z</time>
      </trkpt>
      <trkpt lat="42.88752" lon="0.20523">
        <ele>2133.3</ele>
        <time>2016-07-05T10:41:16Z</time>
      </trkpt>
      <trkpt lat="42.88746" lon="0.20526">
        <ele>2135.23</ele>
        <time>2016-07-05T10:41:42Z</time>
      </trkpt>
      <trkpt lat="42.88717" lon="0.20514">
        <ele>2114.4</ele>
      </trkpt>
      <trkpt lat="42.88728" lon="0.2051">
        <ele>2115.3</ele>
      </trkpt>
    </trkseg>
  </trk>
</gpx>